<?xml version="1.0" encoding="UTF-8" standalone="no" ?><gpx xmlns="http://www.topografix.com/GPX/1/1" xmlns:gpxx="http://www.garmin.com/xmlschemas/GpxExtensions/v3" xmlns:wptx1="http://www.garmin.com/xmlschemas/WaypointExtension/v1" xmlns:gpxtpx="http://www.garmin.com/xmlschemas/TrackPointExtension/v1" creator="eTrex 30" version="1.1" xmlns:xsi="http://www.w3.org/2001/XMLSchema-instance" xsi:schemaLocation="http://www.topografix.com/GPX/1/1 http://www.topografix.com/GPX/1/1/gpx.xsd http://www.garmin.com/xmlschemas/GpxExtensions/v3 http://www8.garmin.com/xmlschemas/GpxExtensionsv3.xsd http://www.garmin.com/xmlschemas/WaypointExtension/v1 http://www8.garmin.com/xmlschemas/WaypointExtensionv1.xsd http://www.garmin.com/xmlschemas/TrackPointExtension/v1 http://www.garmin.com/xmlschemas/TrackPointExtensionv1.xsd"><metadata><link href="http://www.garmin.com"><text>Garmin International</text></link><time>2015-11-23T12:22:19Z</time></metadata><trk><name>23-NOV-15 14:22:13</name><extensions><gpxx:TrackExtension><gpxx:DisplayColor>Cyan</gpxx:DisplayColor></gpxx:TrackExtension></extensions><trkseg><trkpt lat="30.6746767089" lon="35.6105869543"><ele>1247.93</ele><time>2015-11-23T09:01:34Z</time></trkpt><trkpt lat="30.6746990886" lon="35.6106074061"><ele>1247.93</ele><time>2015-11-23T09:01:49Z</time></trkpt><trkpt lat="30.6747045368" lon="35.6106592901"><ele>1248.41</ele><time>2015-11-23T09:01:54Z</time></trkpt><trkpt lat="30.6746950652" lon="35.6106991880"><ele>1250.81</ele><time>2015-11-23T09:01:57Z</time></trkpt><trkpt lat="30.6745803170" lon="35.6108309515"><ele>1252.25</ele><time>2015-11-23T09:02:19Z</time></trkpt><trkpt lat="30.6744612940" lon="35.6109397486"><ele>1254.18</ele><time>2015-11-23T09:02:38Z</time></trkpt><trkpt lat="30.6743781455" lon="35.6110353023"><ele>1257.54</ele><time>2015-11-23T09:02:53Z</time></trkpt><trkpt lat="30.6742849387" lon="35.6111462787"><ele>1259.94</ele><time>2015-11-23T09:03:12Z</time></trkpt><trkpt lat="30.6742022093" lon="35.6112417486"><ele>1261.87</ele><time>2015-11-23T09:03:32Z</time></trkpt><trkpt lat="30.6741395127" lon="35.6113186944"><ele>1264.75</ele><time>2015-11-23T09:03:47Z</time></trkpt><trkpt lat="30.6740510836" lon="35.6114325207"><ele>1267.64</ele><time>2015-11-23T09:04:07Z</time></trkpt><trkpt lat="30.6740144547" lon="35.6114837341"><ele>1270.52</ele><time>2015-11-23T09:04:15Z</time></trkpt><trkpt lat="30.6740088388" lon="35.6114929542"><ele>1269.56</ele><time>2015-11-23T09:04:16Z</time></trkpt><trkpt lat="30.6738950964" lon="35.6116595026"><ele>1271.48</ele><time>2015-11-23T09:04:39Z</time></trkpt><trkpt lat="30.6739142071" lon="35.6118096225"><ele>1273.40</ele><time>2015-11-23T09:04:58Z</time></trkpt><trkpt lat="30.6739872135" lon="35.6119611673"><ele>1274.36</ele><time>2015-11-23T09:05:16Z</time></trkpt><trkpt lat="30.6740104314" lon="35.6120065134"><ele>1274.36</ele><time>2015-11-23T09:05:21Z</time></trkpt><trkpt lat="30.6740713678" lon="35.6121902447"><ele>1276.77</ele><time>2015-11-23T09:05:38Z</time></trkpt><trkpt lat="30.6741984375" lon="35.6124763191"><ele>1278.69</ele><time>2015-11-23T09:05:56Z</time></trkpt><trkpt lat="30.6744024530" lon="35.6126072444"><ele>1282.06</ele><time>2015-11-23T09:06:10Z</time></trkpt><trkpt lat="30.6745002698" lon="35.6126394309"><ele>1283.50</ele><time>2015-11-23T09:06:16Z</time></trkpt><trkpt lat="30.6746073905" lon="35.6127230823"><ele>1286.38</ele><time>2015-11-23T09:06:25Z</time></trkpt><trkpt lat="30.6747090630" lon="35.6128541753"><ele>1288.78</ele><time>2015-11-23T09:06:38Z</time></trkpt><trkpt lat="30.6746343803" lon="35.6128799077"><ele>1289.27</ele><time>2015-11-23T09:06:46Z</time></trkpt><trkpt lat="30.6743597891" lon="35.6128167082"><ele>1290.23</ele><time>2015-11-23T09:07:04Z</time></trkpt><trkpt lat="30.6741275266" lon="35.6127937417"><ele>1291.19</ele><time>2015-11-23T09:07:19Z</time></trkpt><trkpt lat="30.6740851980" lon="35.6128053088"><ele>1291.19</ele><time>2015-11-23T09:07:22Z</time></trkpt><trkpt lat="30.6739673484" lon="35.6127904728"><ele>1291.67</ele><time>2015-11-23T09:07:30Z</time></trkpt><trkpt lat="30.6737075094" lon="35.6127388403"><ele>1293.59</ele><time>2015-11-23T09:07:47Z</time></trkpt><trkpt lat="30.6734765042" lon="35.6126276962"><ele>1296.48</ele><time>2015-11-23T09:08:04Z</time></trkpt><trkpt lat="30.6734096166" lon="35.6125933304"><ele>1296.96</ele><time>2015-11-23T09:08:09Z</time></trkpt><trkpt lat="30.6733274739" lon="35.6125432905"><ele>1299.36</ele><time>2015-11-23T09:08:15Z</time></trkpt><trkpt lat="30.6731451675" lon="35.6124192383"><ele>1300.80</ele><time>2015-11-23T09:08:30Z</time></trkpt><trkpt lat="30.6729687285" lon="35.6123128720"><ele>1304.17</ele><time>2015-11-23T09:08:46Z</time></trkpt><trkpt lat="30.6729274895" lon="35.6122790929"><ele>1305.61</ele><time>2015-11-23T09:08:50Z</time></trkpt><trkpt lat="30.6727511343" lon="35.6121552922"><ele>1305.13</ele><time>2015-11-23T09:09:05Z</time></trkpt><trkpt lat="30.6727208756" lon="35.6121241115"><ele>1305.61</ele><time>2015-11-23T09:09:08Z</time></trkpt><trkpt lat="30.6725454424" lon="35.6119351834"><ele>1307.53</ele><time>2015-11-23T09:09:25Z</time></trkpt><trkpt lat="30.6724432670" lon="35.6117385440"><ele>1309.93</ele><time>2015-11-23T09:09:39Z</time></trkpt><trkpt lat="30.6724267546" lon="35.6114871707"><ele>1309.93</ele><time>2015-11-23T09:09:53Z</time></trkpt><trkpt lat="30.6724271737" lon="35.6114150025"><ele>1311.38</ele><time>2015-11-23T09:09:57Z</time></trkpt><trkpt lat="30.6724109966" lon="35.6112183630"><ele>1314.74</ele><time>2015-11-23T09:10:08Z</time></trkpt><trkpt lat="30.6723929755" lon="35.6111511402"><ele>1315.22</ele><time>2015-11-23T09:10:12Z</time></trkpt><trkpt lat="30.6723187119" lon="35.6108857691"><ele>1317.14</ele><time>2015-11-23T09:10:27Z</time></trkpt><trkpt lat="30.6721628923" lon="35.6105809193"><ele>1318.59</ele><time>2015-11-23T09:10:44Z</time></trkpt><trkpt lat="30.6720722839" lon="35.6104186457"><ele>1320.03</ele><time>2015-11-23T09:10:54Z</time></trkpt><trkpt lat="30.6720729545" lon="35.6103167217"><ele>1320.51</ele><time>2015-11-23T09:11:00Z</time></trkpt><trkpt lat="30.6720858626" lon="35.6102914084"><ele>1320.51</ele><time>2015-11-23T09:11:01Z</time></trkpt><trkpt lat="30.6724200491" lon="35.6098674517"><ele>1320.51</ele><time>2015-11-23T09:11:14Z</time></trkpt><trkpt lat="30.6726357993" lon="35.6097011548"><ele>1323.39</ele><time>2015-11-23T09:11:22Z</time></trkpt><trkpt lat="30.6726469472" lon="35.6096817087"><ele>1324.83</ele><time>2015-11-23T09:11:24Z</time></trkpt><trkpt lat="30.6726539042" lon="35.6096658669"><ele>1323.39</ele><time>2015-11-23T09:11:29Z</time></trkpt><trkpt lat="30.6726595201" lon="35.6096760929"><ele>1324.35</ele><time>2015-11-23T09:11:50Z</time></trkpt><trkpt lat="30.6726231426" lon="35.6096558925"><ele>1322.43</ele><time>2015-11-23T09:12:35Z</time></trkpt><trkpt lat="30.6726280879" lon="35.6096628495"><ele>1322.91</ele><time>2015-11-23T09:12:47Z</time></trkpt><trkpt lat="30.6726198737" lon="35.6096728239"><ele>1321.95</ele><time>2015-11-23T09:12:53Z</time></trkpt><trkpt lat="30.6726092286" lon="35.6097035855"><ele>1322.91</ele><time>2015-11-23T09:13:44Z</time></trkpt><trkpt lat="30.6726200413" lon="35.6096911803"><ele>1324.83</ele><time>2015-11-23T09:13:58Z</time></trkpt><trkpt lat="30.6726139225" lon="35.6096933596"><ele>1323.39</ele><time>2015-11-23T09:14:01Z</time></trkpt><trkpt lat="30.6726254057" lon="35.6096787751"><ele>1323.39</ele><time>2015-11-23T09:14:43Z</time></trkpt><trkpt lat="30.6726464443" lon="35.6096683815"><ele>1320.03</ele><time>2015-11-23T09:15:25Z</time></trkpt><trkpt lat="30.6726346258" lon="35.6096770987"><ele>1320.99</ele><time>2015-11-23T09:16:07Z</time></trkpt><trkpt lat="30.6726255734" lon="35.6096734107"><ele>1324.35</ele><time>2015-11-23T09:16:18Z</time></trkpt><trkpt lat="30.6726448517" lon="35.6096663699"><ele>1322.91</ele><time>2015-11-23T09:16:52Z</time></trkpt><trkpt lat="30.6726219691" lon="35.6096788589"><ele>1322.91</ele><time>2015-11-23T09:17:35Z</time></trkpt><trkpt lat="30.6726200413" lon="35.6096839719"><ele>1323.39</ele><time>2015-11-23T09:18:00Z</time></trkpt><trkpt lat="30.6726210471" lon="35.6096727401"><ele>1324.83</ele><time>2015-11-23T09:18:10Z</time></trkpt><trkpt lat="30.6726278365" lon="35.6096622627"><ele>1323.39</ele><time>2015-11-23T09:18:18Z</time></trkpt><trkpt lat="30.6726341229" lon="35.6096675433"><ele>1321.95</ele><time>2015-11-23T09:18:56Z</time></trkpt><trkpt lat="30.6726324465" lon="35.6096650288"><ele>1322.91</ele><time>2015-11-23T09:19:45Z</time></trkpt><trkpt lat="30.6726676505" lon="35.6096529588"><ele>1323.87</ele><time>2015-11-23T09:20:28Z</time></trkpt><trkpt lat="30.6726403255" lon="35.6096817926"><ele>1321.47</ele><time>2015-11-23T09:21:20Z</time></trkpt><trkpt lat="30.6726406608" lon="35.6096651126"><ele>1321.95</ele><time>2015-11-23T09:21:42Z</time></trkpt><trkpt lat="30.6726641301" lon="35.6097055972"><ele>1320.03</ele><time>2015-11-23T09:22:12Z</time></trkpt><trkpt lat="30.6726458576" lon="35.6097332574"><ele>1320.51</ele><time>2015-11-23T09:22:20Z</time></trkpt><trkpt lat="30.6726086419" lon="35.6097645219"><ele>1320.03</ele><time>2015-11-23T09:22:26Z</time></trkpt><trkpt lat="30.6723498926" lon="35.6099537853"><ele>1321.47</ele><time>2015-11-23T09:22:45Z</time></trkpt><trkpt lat="30.6722792331" lon="35.6100210920"><ele>1320.03</ele><time>2015-11-23T09:22:50Z</time></trkpt><trkpt lat="30.6722352281" lon="35.6100640912"><ele>1319.55</ele><time>2015-11-23T09:22:53Z</time></trkpt><trkpt lat="30.6721884571" lon="35.6101640873"><ele>1319.55</ele><time>2015-11-23T09:22:58Z</time></trkpt><trkpt lat="30.6721046381" lon="35.6102836132"><ele>1320.51</ele><time>2015-11-23T09:23:07Z</time></trkpt><trkpt lat="30.6720886286" lon="35.6102974433"><ele>1320.03</ele><time>2015-11-23T09:23:09Z</time></trkpt><trkpt lat="30.6720182206" lon="35.6103608105"><ele>1321.95</ele><time>2015-11-23T09:23:18Z</time></trkpt><trkpt lat="30.6718957610" lon="35.6102861278"><ele>1322.43</ele><time>2015-11-23T09:23:30Z</time></trkpt><trkpt lat="30.6718137860" lon="35.6102795899"><ele>1322.91</ele><time>2015-11-23T09:23:37Z</time></trkpt><trkpt lat="30.6716444716" lon="35.6103011314"><ele>1326.28</ele><time>2015-11-23T09:23:51Z</time></trkpt><trkpt lat="30.6716006342" lon="35.6103111058"><ele>1327.72</ele><time>2015-11-23T09:23:55Z</time></trkpt><trkpt lat="30.6715236045" lon="35.6103382632"><ele>1329.64</ele><time>2015-11-23T09:24:02Z</time></trkpt><trkpt lat="30.6714714691" lon="35.6103505008"><ele>1330.60</ele><time>2015-11-23T09:24:07Z</time></trkpt><trkpt lat="30.6713062618" lon="35.6104166340"><ele>1333.97</ele><time>2015-11-23T09:24:21Z</time></trkpt><trkpt lat="30.6710979715" lon="35.6105263531"><ele>1337.33</ele><time>2015-11-23T09:24:38Z</time></trkpt><trkpt lat="30.6710699759" lon="35.6105481461"><ele>1336.85</ele><time>2015-11-23T09:24:41Z</time></trkpt><trkpt lat="30.6710231211" lon="35.6105893850"><ele>1337.81</ele><time>2015-11-23T09:24:46Z</time></trkpt><trkpt lat="30.6709149946" lon="35.6107107550"><ele>1339.25</ele><time>2015-11-23T09:24:58Z</time></trkpt><trkpt lat="30.6707926188" lon="35.6109191291"><ele>1341.66</ele><time>2015-11-23T09:25:16Z</time></trkpt><trkpt lat="30.6706911139" lon="35.6111238152"><ele>1342.62</ele><time>2015-11-23T09:25:31Z</time></trkpt><trkpt lat="30.6706401519" lon="35.6112140883"><ele>1344.54</ele><time>2015-11-23T09:25:38Z</time></trkpt><trkpt lat="30.6706207059" lon="35.6112554111"><ele>1344.54</ele><time>2015-11-23T09:25:41Z</time></trkpt><trkpt lat="30.6705103163" lon="35.6114255637"><ele>1346.46</ele><time>2015-11-23T09:25:56Z</time></trkpt><trkpt lat="30.6704637967" lon="35.6114739273"><ele>1347.43</ele><time>2015-11-23T09:26:04Z</time></trkpt><trkpt lat="30.6704571750" lon="35.6115132384"><ele>1349.35</ele><time>2015-11-23T09:26:16Z</time></trkpt><trkpt lat="30.6703493837" lon="35.6115930341"><ele>1349.83</ele><time>2015-11-23T09:26:33Z</time></trkpt><trkpt lat="30.6702763774" lon="35.6116536353"><ele>1351.75</ele><time>2015-11-23T09:26:42Z</time></trkpt><trkpt lat="30.6701353937" lon="35.6117864884"><ele>1352.23</ele><time>2015-11-23T09:27:01Z</time></trkpt><trkpt lat="30.6700488087" lon="35.6118558068"><ele>1353.19</ele><time>2015-11-23T09:27:19Z</time></trkpt><trkpt lat="30.6699411850" lon="35.6119892467"><ele>1355.12</ele><time>2015-11-23T09:27:37Z</time></trkpt><trkpt lat="30.6697675958" lon="35.6121531129"><ele>1355.12</ele><time>2015-11-23T09:27:59Z</time></trkpt><trkpt lat="30.6696037296" lon="35.6123408675"><ele>1355.60</ele><time>2015-11-23T09:28:19Z</time></trkpt><trkpt lat="30.6694747321" lon="35.6124938373"><ele>1356.56</ele><time>2015-11-23T09:28:38Z</time></trkpt><trkpt lat="30.6693445612" lon="35.6126786582"><ele>1357.52</ele><time>2015-11-23T09:28:57Z</time></trkpt><trkpt lat="30.6692332495" lon="35.6128183845"><ele>1360.40</ele><time>2015-11-23T09:29:16Z</time></trkpt><trkpt lat="30.6690998096" lon="35.6129526626"><ele>1362.81</ele><time>2015-11-23T09:29:37Z</time></trkpt><trkpt lat="30.6689908449" lon="35.6130437739"><ele>1365.21</ele><time>2015-11-23T09:29:56Z</time></trkpt><trkpt lat="30.6689029187" lon="35.6131254137"><ele>1367.13</ele><time>2015-11-23T09:30:13Z</time></trkpt><trkpt lat="30.6688179262" lon="35.6132293493"><ele>1370.02</ele><time>2015-11-23T09:30:30Z</time></trkpt><trkpt lat="30.6687149126" lon="35.6132906210"><ele>1372.42</ele><time>2015-11-23T09:30:50Z</time></trkpt><trkpt lat="30.6686787028" lon="35.6132746954"><ele>1370.98</ele><time>2015-11-23T09:30:59Z</time></trkpt><trkpt lat="30.6686500367" lon="35.6132531539"><ele>1372.42</ele><time>2015-11-23T09:31:18Z</time></trkpt><trkpt lat="30.6686293334" lon="35.6132208835"><ele>1372.42</ele><time>2015-11-23T09:31:53Z</time></trkpt><trkpt lat="30.6685941294" lon="35.6131897029"><ele>1370.98</ele><time>2015-11-23T09:32:15Z</time></trkpt><trkpt lat="30.6685999129" lon="35.6132316962"><ele>1371.94</ele><time>2015-11-23T09:33:00Z</time></trkpt><trkpt lat="30.6686577480" lon="35.6132694986"><ele>1372.42</ele><time>2015-11-23T09:33:38Z</time></trkpt><trkpt lat="30.6686502881" lon="35.6132788025"><ele>1371.94</ele><time>2015-11-23T09:34:12Z</time></trkpt><trkpt lat="30.6686372124" lon="35.6132588536"><ele>1373.38</ele><time>2015-11-23T09:34:55Z</time></trkpt><trkpt lat="30.6686270703" lon="35.6131413393"><ele>1373.86</ele><time>2015-11-23T09:35:25Z</time></trkpt><trkpt lat="30.6686442532" lon="35.6131619588"><ele>1373.86</ele><time>2015-11-23T09:35:49Z</time></trkpt><trkpt lat="30.6686447561" lon="35.6131366454"><ele>1374.82</ele><time>2015-11-23T09:36:23Z</time></trkpt><trkpt lat="30.6686483603" lon="35.6131292693"><ele>1374.34</ele><time>2015-11-23T09:36:29Z</time></trkpt><trkpt lat="30.6686184369" lon="35.6131509785"><ele>1373.86</ele><time>2015-11-23T09:37:07Z</time></trkpt><trkpt lat="30.6686834805" lon="35.6131687481"><ele>1374.82</ele><time>2015-11-23T09:37:57Z</time></trkpt><trkpt lat="30.6686828099" lon="35.6131881941"><ele>1374.82</ele><time>2015-11-23T09:38:38Z</time></trkpt><trkpt lat="30.6687236298" lon="35.6132281758"><ele>1374.82</ele><time>2015-11-23T09:38:51Z</time></trkpt><trkpt lat="30.6686896831" lon="35.6132498849"><ele>1375.30</ele><time>2015-11-23T09:39:11Z</time></trkpt><trkpt lat="30.6686746795" lon="35.6132955663"><ele>1375.30</ele><time>2015-11-23T09:39:22Z</time></trkpt><trkpt lat="30.6686375476" lon="35.6133368891"><ele>1377.23</ele><time>2015-11-23T09:39:39Z</time></trkpt><trkpt lat="30.6685483642" lon="35.6134639587"><ele>1378.67</ele><time>2015-11-23T09:39:58Z</time></trkpt><trkpt lat="30.6684658863" lon="35.6135610212"><ele>1381.07</ele><time>2015-11-23T09:40:17Z</time></trkpt><trkpt lat="30.6684011780" lon="35.6136288308"><ele>1382.51</ele><time>2015-11-23T09:40:33Z</time></trkpt><trkpt lat="30.6683103181" lon="35.6136984006"><ele>1385.40</ele><time>2015-11-23T09:40:52Z</time></trkpt><trkpt lat="30.6682162732" lon="35.6137683894"><ele>1387.32</ele><time>2015-11-23T09:41:10Z</time></trkpt><trkpt lat="30.6681633834" lon="35.6138013303"><ele>1388.76</ele><time>2015-11-23T09:41:30Z</time></trkpt><trkpt lat="30.6680851802" lon="35.6138730794"><ele>1391.65</ele><time>2015-11-23T09:41:47Z</time></trkpt><trkpt lat="30.6679912191" lon="35.6139327586"><ele>1394.53</ele><time>2015-11-23T09:42:08Z</time></trkpt><trkpt lat="30.6679119263" lon="35.6139782723"><ele>1395.97</ele><time>2015-11-23T09:42:26Z</time></trkpt><trkpt lat="30.6678263471" lon="35.6140174996"><ele>1397.89</ele><time>2015-11-23T09:42:42Z</time></trkpt><trkpt lat="30.6677352358" lon="35.6140692160"><ele>1399.34</ele><time>2015-11-23T09:43:01Z</time></trkpt><trkpt lat="30.6677074078" lon="35.6140834652"><ele>1401.74</ele><time>2015-11-23T09:43:05Z</time></trkpt><trkpt lat="30.6676929072" lon="35.6140895002"><ele>1403.18</ele><time>2015-11-23T09:43:07Z</time></trkpt><trkpt lat="30.6676024664" lon="35.6141362712"><ele>1402.70</ele><time>2015-11-23T09:43:25Z</time></trkpt><trkpt lat="30.6675243471" lon="35.6141764205"><ele>1405.58</ele><time>2015-11-23T09:43:40Z</time></trkpt><trkpt lat="30.6674101856" lon="35.6142360158"><ele>1407.51</ele><time>2015-11-23T09:43:59Z</time></trkpt><trkpt lat="30.6673021428" lon="35.6142817810"><ele>1409.43</ele><time>2015-11-23T09:44:16Z</time></trkpt><trkpt lat="30.6672096904" lon="35.6143104471"><ele>1411.35</ele><time>2015-11-23T09:44:32Z</time></trkpt><trkpt lat="30.6670755800" lon="35.6143710483"><ele>1413.28</ele><time>2015-11-23T09:44:52Z</time></trkpt><trkpt lat="30.6669699680" lon="35.6144424621"><ele>1414.72</ele><time>2015-11-23T09:45:09Z</time></trkpt><trkpt lat="30.6668822933" lon="35.6145425420"><ele>1417.12</ele><time>2015-11-23T09:45:26Z</time></trkpt><trkpt lat="30.6667958759" lon="35.6146697793"><ele>1419.04</ele><time>2015-11-23T09:45:44Z</time></trkpt><trkpt lat="30.6666983943" lon="35.6148157921"><ele>1420.97</ele><time>2015-11-23T09:46:04Z</time></trkpt><trkpt lat="30.6666617654" lon="35.6148833502"><ele>1420.97</ele><time>2015-11-23T09:46:12Z</time></trkpt><trkpt lat="30.6665655412" lon="35.6151062250"><ele>1421.45</ele><time>2015-11-23T09:46:32Z</time></trkpt><trkpt lat="30.6664502900" lon="35.6153497193"><ele>1423.37</ele><time>2015-11-23T09:46:54Z</time></trkpt><trkpt lat="30.6663220469" lon="35.6155205425"><ele>1425.77</ele><time>2015-11-23T09:47:15Z</time></trkpt><trkpt lat="30.6662383117" lon="35.6156454328"><ele>1427.70</ele><time>2015-11-23T09:47:32Z</time></trkpt><trkpt lat="30.6661373936" lon="35.6157760229"><ele>1430.58</ele><time>2015-11-23T09:47:51Z</time></trkpt><trkpt lat="30.6660627946" lon="35.6158776954"><ele>1431.54</ele><time>2015-11-23T09:48:06Z</time></trkpt><trkpt lat="30.6659785565" lon="35.6159900967"><ele>1432.98</ele><time>2015-11-23T09:48:25Z</time></trkpt><trkpt lat="30.6659012754" lon="35.6160896737"><ele>1434.91</ele><time>2015-11-23T09:48:42Z</time></trkpt><trkpt lat="30.6658295263" lon="35.6161981355"><ele>1437.31</ele><time>2015-11-23T09:48:59Z</time></trkpt><trkpt lat="30.6657545082" lon="35.6163034961"><ele>1439.71</ele><time>2015-11-23T09:49:18Z</time></trkpt><trkpt lat="30.6656830106" lon="35.6163744070"><ele>1441.63</ele><time>2015-11-23T09:49:36Z</time></trkpt><trkpt lat="30.6656150334" lon="35.6164270453"><ele>1444.52</ele><time>2015-11-23T09:49:53Z</time></trkpt><trkpt lat="30.6655441225" lon="35.6164702959"><ele>1445.48</ele><time>2015-11-23T09:50:09Z</time></trkpt><trkpt lat="30.6654605549" lon="35.6165215094"><ele>1448.36</ele><time>2015-11-23T09:50:25Z</time></trkpt><trkpt lat="30.6653230917" lon="35.6165764108"><ele>1450.77</ele><time>2015-11-23T09:50:44Z</time></trkpt><trkpt lat="30.6652140431" lon="35.6165960245"><ele>1452.69</ele><time>2015-11-23T09:51:00Z</time></trkpt><trkpt lat="30.6651116163" lon="35.6165852956"><ele>1455.09</ele><time>2015-11-23T09:51:17Z</time></trkpt><trkpt lat="30.6649934314" lon="35.6165743154"><ele>1457.50</ele><time>2015-11-23T09:51:37Z</time></trkpt><trkpt lat="30.6648691278" lon="35.6165511813"><ele>1459.90</ele><time>2015-11-23T09:51:54Z</time></trkpt><trkpt lat="30.6647620071" lon="35.6165293045"><ele>1461.82</ele><time>2015-11-23T09:52:11Z</time></trkpt><trkpt lat="30.6646361947" lon="35.6165245268"><ele>1463.26</ele><time>2015-11-23T09:52:30Z</time></trkpt><trkpt lat="30.6644994020" lon="35.6165262870"><ele>1465.67</ele><time>2015-11-23T09:52:49Z</time></trkpt><trkpt lat="30.6643988192" lon="35.6165459007"><ele>1467.11</ele><time>2015-11-23T09:53:06Z</time></trkpt><trkpt lat="30.6642408203" lon="35.6165938452"><ele>1469.51</ele><time>2015-11-23T09:53:25Z</time></trkpt><trkpt lat="30.6641219649" lon="35.6166356709"><ele>1471.44</ele><time>2015-11-23T09:53:40Z</time></trkpt><trkpt lat="30.6639658939" lon="35.6167150475"><ele>1473.84</ele><time>2015-11-23T09:54:00Z</time></trkpt><trkpt lat="30.6638323702" lon="35.6167856231"><ele>1475.76</ele><time>2015-11-23T09:54:18Z</time></trkpt><trkpt lat="30.6636970863" lon="35.6168510858"><ele>1477.20</ele><time>2015-11-23T09:54:36Z</time></trkpt><trkpt lat="30.6635409314" lon="35.6169184763"><ele>1478.16</ele><time>2015-11-23T09:54:55Z</time></trkpt><trkpt lat="30.6634048931" lon="35.6169985235"><ele>1479.61</ele><time>2015-11-23T09:55:14Z</time></trkpt><trkpt lat="30.6633487344" lon="35.6170115992"><ele>1480.09</ele><time>2015-11-23T09:55:29Z</time></trkpt><trkpt lat="30.6633561943" lon="35.6170138624"><ele>1480.09</ele><time>2015-11-23T09:55:48Z</time></trkpt><trkpt lat="30.6633387599" lon="35.6170271896"><ele>1480.09</ele><time>2015-11-23T09:56:15Z</time></trkpt><trkpt lat="30.6633305456" lon="35.6170276925"><ele>1480.57</ele><time>2015-11-23T09:56:41Z</time></trkpt><trkpt lat="30.6633336470" lon="35.6170552690"><ele>1480.09</ele><time>2015-11-23T09:56:44Z</time></trkpt><trkpt lat="30.6632794999" lon="35.6171216536"><ele>1481.05</ele><time>2015-11-23T09:56:51Z</time></trkpt><trkpt lat="30.6632595509" lon="35.6171417702"><ele>1481.05</ele><time>2015-11-23T09:56:53Z</time></trkpt><trkpt lat="30.6631571241" lon="35.6172311213"><ele>1481.53</ele><time>2015-11-23T09:57:02Z</time></trkpt><trkpt lat="30.6630628277" lon="35.6172928121"><ele>1482.97</ele><time>2015-11-23T09:57:10Z</time></trkpt><trkpt lat="30.6628987938" lon="35.6173985079"><ele>1485.37</ele><time>2015-11-23T09:57:25Z</time></trkpt><trkpt lat="30.6628438924" lon="35.6174237374"><ele>1485.37</ele><time>2015-11-23T09:57:30Z</time></trkpt><trkpt lat="30.6627714727" lon="35.6174473744"><ele>1485.85</ele><time>2015-11-23T09:57:36Z</time></trkpt><trkpt lat="30.6626816187" lon="35.6174713466"><ele>1485.85</ele><time>2015-11-23T09:57:43Z</time></trkpt><trkpt lat="30.6626418047" lon="35.6174810696"><ele>1485.85</ele><time>2015-11-23T09:57:46Z</time></trkpt><trkpt lat="30.6624372024" lon="35.6175106578"><ele>1489.70</ele><time>2015-11-23T09:58:01Z</time></trkpt><trkpt lat="30.6621947140" lon="35.6174879428"><ele>1489.70</ele><time>2015-11-23T09:58:17Z</time></trkpt><trkpt lat="30.6619093101" lon="35.6173878629"><ele>1491.14</ele><time>2015-11-23T09:58:32Z</time></trkpt><trkpt lat="30.6616439391" lon="35.6172840111"><ele>1492.58</ele><time>2015-11-23T09:58:48Z</time></trkpt><trkpt lat="30.6613214873" lon="35.6172441132"><ele>1493.55</ele><time>2015-11-23T09:59:07Z</time></trkpt><trkpt lat="30.6610726286" lon="35.6173477136"><ele>1494.51</ele><time>2015-11-23T09:59:22Z</time></trkpt><trkpt lat="30.6610621512" lon="35.6173624657"><ele>1494.99</ele><time>2015-11-23T09:59:23Z</time></trkpt><trkpt lat="30.6609770749" lon="35.6174317840"><ele>1495.47</ele><time>2015-11-23T09:59:29Z</time></trkpt><trkpt lat="30.6608746480" lon="35.6174730230"><ele>1495.95</ele><time>2015-11-23T09:59:42Z</time></trkpt><trkpt lat="30.6608666852" lon="35.6175176986"><ele>1495.95</ele><time>2015-11-23T09:59:58Z</time></trkpt><trkpt lat="30.6608563755" lon="35.6175226439"><ele>1495.47</ele><time>2015-11-23T10:00:22Z</time></trkpt><trkpt lat="30.6608800124" lon="35.6175265834"><ele>1495.95</ele><time>2015-11-23T10:00:59Z</time></trkpt><trkpt lat="30.6608622428" lon="35.6175321992"><ele>1496.91</ele><time>2015-11-23T10:01:30Z</time></trkpt><trkpt lat="30.6608538609" lon="35.6174946483"><ele>1495.95</ele><time>2015-11-23T10:01:56Z</time></trkpt><trkpt lat="30.6608465686" lon="35.6175345462"><ele>1495.95</ele><time>2015-11-23T10:02:07Z</time></trkpt><trkpt lat="30.6608049106" lon="35.6177455187"><ele>1496.91</ele><time>2015-11-23T10:02:26Z</time></trkpt><trkpt lat="30.6607416272" lon="35.6178943813"><ele>1499.31</ele><time>2015-11-23T10:02:44Z</time></trkpt><trkpt lat="30.6606765836" lon="35.6180309225"><ele>1500.76</ele><time>2015-11-23T10:03:01Z</time></trkpt><trkpt lat="30.6606134679" lon="35.6181642786"><ele>1502.20</ele><time>2015-11-23T10:03:17Z</time></trkpt><trkpt lat="30.6605449878" lon="35.6183097884"><ele>1504.12</ele><time>2015-11-23T10:03:36Z</time></trkpt><trkpt lat="30.6604801118" lon="35.6184800249"><ele>1506.52</ele><time>2015-11-23T10:03:55Z</time></trkpt><trkpt lat="30.6604619231" lon="35.6185995508"><ele>1507.97</ele><time>2015-11-23T10:04:10Z</time></trkpt><trkpt lat="30.6604092848" lon="35.6187585555"><ele>1509.41</ele><time>2015-11-23T10:04:32Z</time></trkpt><trkpt lat="30.6603801996" lon="35.6188719627"><ele>1510.85</ele><time>2015-11-23T10:04:47Z</time></trkpt><trkpt lat="30.6603525393" lon="35.6190131139"><ele>1513.25</ele><time>2015-11-23T10:05:06Z</time></trkpt><trkpt lat="30.6603263877" lon="35.6191578694"><ele>1515.18</ele><time>2015-11-23T10:05:26Z</time></trkpt><trkpt lat="30.6603237055" lon="35.6193031278"><ele>1517.10</ele><time>2015-11-23T10:05:46Z</time></trkpt><trkpt lat="30.6602875795" lon="35.6194340531"><ele>1519.50</ele><time>2015-11-23T10:06:05Z</time></trkpt><trkpt lat="30.6602628529" lon="35.6195641402"><ele>1521.42</ele><time>2015-11-23T10:06:25Z</time></trkpt><trkpt lat="30.6602293253" lon="35.6197267491"><ele>1523.83</ele><time>2015-11-23T10:06:46Z</time></trkpt><trkpt lat="30.6602001563" lon="35.6198642962"><ele>1526.23</ele><time>2015-11-23T10:07:04Z</time></trkpt><trkpt lat="30.6601786986" lon="35.6200056989"><ele>1527.67</ele><time>2015-11-23T10:07:22Z</time></trkpt><trkpt lat="30.6601556484" lon="35.6201853231"><ele>1529.59</ele><time>2015-11-23T10:07:43Z</time></trkpt><trkpt lat="30.6600952987" lon="35.6203837227"><ele>1532.00</ele><time>2015-11-23T10:08:05Z</time></trkpt><trkpt lat="30.6600533053" lon="35.6205281429"><ele>1533.92</ele><time>2015-11-23T10:08:22Z</time></trkpt><trkpt lat="30.6599880103" lon="35.6206593197"><ele>1535.84</ele><time>2015-11-23T10:08:41Z</time></trkpt><trkpt lat="30.6599160098" lon="35.6207998004"><ele>1537.29</ele><time>2015-11-23T10:09:01Z</time></trkpt><trkpt lat="30.6598362140" lon="35.6209368445"><ele>1538.25</ele><time>2015-11-23T10:09:20Z</time></trkpt><trkpt lat="30.6597468629" lon="35.6210974418"><ele>1539.69</ele><time>2015-11-23T10:09:41Z</time></trkpt><trkpt lat="30.6596942246" lon="35.6212301273"><ele>1541.61</ele><time>2015-11-23T10:10:00Z</time></trkpt><trkpt lat="30.6596367247" lon="35.6213380024"><ele>1542.57</ele><time>2015-11-23T10:10:15Z</time></trkpt><trkpt lat="30.6595656462" lon="35.6215093285"><ele>1544.98</ele><time>2015-11-23T10:10:33Z</time></trkpt><trkpt lat="30.6594870239" lon="35.6216845941"><ele>1546.90</ele><time>2015-11-23T10:10:53Z</time></trkpt><trkpt lat="30.6594329607" lon="35.6218218058"><ele>1547.86</ele><time>2015-11-23T10:11:10Z</time></trkpt><trkpt lat="30.6593673304" lon="35.6219851691"><ele>1550.26</ele><time>2015-11-23T10:11:32Z</time></trkpt><trkpt lat="30.6593244988" lon="35.6221007556"><ele>1551.71</ele><time>2015-11-23T10:11:48Z</time></trkpt><trkpt lat="30.6592678372" lon="35.6222868338"><ele>1553.15</ele><time>2015-11-23T10:12:08Z</time></trkpt><trkpt lat="30.6592582818" lon="35.6223454233"><ele>1553.15</ele><time>2015-11-23T10:12:14Z</time></trkpt><trkpt lat="30.6592491455" lon="35.6225048471"><ele>1554.11</ele><time>2015-11-23T10:12:32Z</time></trkpt><trkpt lat="30.6592451222" lon="35.6226922665"><ele>1554.59</ele><time>2015-11-23T10:12:50Z</time></trkpt><trkpt lat="30.6592577789" lon="35.6229060888"><ele>1555.55</ele><time>2015-11-23T10:13:11Z</time></trkpt><trkpt lat="30.6592838466" lon="35.6230625790"><ele>1556.51</ele><time>2015-11-23T10:13:30Z</time></trkpt><trkpt lat="30.6592789013" lon="35.6231280416"><ele>1556.51</ele><time>2015-11-23T10:13:41Z</time></trkpt><trkpt lat="30.6592696812" lon="35.6231437996"><ele>1555.55</ele><time>2015-11-23T10:13:42Z</time></trkpt><trkpt lat="30.6592568569" lon="35.6231619045"><ele>1556.03</ele><time>2015-11-23T10:13:43Z</time></trkpt><trkpt lat="30.6592403445" lon="35.6231848709"><ele>1555.55</ele><time>2015-11-23T10:13:44Z</time></trkpt><trkpt lat="30.6592170428" lon="35.6232147943"><ele>1555.07</ele><time>2015-11-23T10:13:45Z</time></trkpt><trkpt lat="30.6590118539" lon="35.6235037185"><ele>1551.22</ele><time>2015-11-23T10:13:51Z</time></trkpt><trkpt lat="30.6589369196" lon="35.6236104202"><ele>1550.74</ele><time>2015-11-23T10:13:53Z</time></trkpt><trkpt lat="30.6588396057" lon="35.6237570196"><ele>1549.30</ele><time>2015-11-23T10:13:56Z</time></trkpt><trkpt lat="30.6588083412" lon="35.6238062214"><ele>1549.30</ele><time>2015-11-23T10:13:57Z</time></trkpt><trkpt lat="30.6585996319" lon="35.6241393182"><ele>1545.94</ele><time>2015-11-23T10:14:03Z</time></trkpt><trkpt lat="30.6584216002" lon="35.6244151667"><ele>1542.57</ele><time>2015-11-23T10:14:07Z</time></trkpt><trkpt lat="30.6582559738" lon="35.6246698927"><ele>1538.73</ele><time>2015-11-23T10:14:10Z</time></trkpt><trkpt lat="30.6580809597" lon="35.6249795202"><ele>1534.88</ele><time>2015-11-23T10:14:13Z</time></trkpt><trkpt lat="30.6579566561" lon="35.6252037361"><ele>1531.52</ele><time>2015-11-23T10:14:15Z</time></trkpt><trkpt lat="30.6577699911" lon="35.6255416945"><ele>1526.23</ele><time>2015-11-23T10:14:18Z</time></trkpt><trkpt lat="30.6575021893" lon="35.6260099076"><ele>1521.90</ele><time>2015-11-23T10:14:22Z</time></trkpt><trkpt lat="30.6571793184" lon="35.6265946291"><ele>1519.50</ele><time>2015-11-23T10:14:27Z</time></trkpt><trkpt lat="30.6570005324" lon="35.6269118842"><ele>1516.62</ele><time>2015-11-23T10:14:30Z</time></trkpt><trkpt lat="30.6567690242" lon="35.6273118686"><ele>1513.25</ele><time>2015-11-23T10:14:34Z</time></trkpt><trkpt lat="30.6565926690" lon="35.6276315544"><ele>1509.89</ele><time>2015-11-23T10:14:37Z</time></trkpt><trkpt lat="30.6564676110" lon="35.6278582010"><ele>1507.97</ele><time>2015-11-23T10:14:39Z</time></trkpt><trkpt lat="30.6562120467" lon="35.6282933056"><ele>1503.64</ele><time>2015-11-23T10:14:43Z</time></trkpt><trkpt lat="30.6559040956" lon="35.6288692262"><ele>1501.24</ele><time>2015-11-23T10:14:51Z</time></trkpt><trkpt lat="30.6556044426" lon="35.6293444801"><ele>1500.76</ele><time>2015-11-23T10:15:01Z</time></trkpt><trkpt lat="30.6555777881" lon="35.6293894071"><ele>1500.27</ele><time>2015-11-23T10:15:02Z</time></trkpt><trkpt lat="30.6555525586" lon="35.6294345018"><ele>1500.27</ele><time>2015-11-23T10:15:03Z</time></trkpt><trkpt lat="30.6555259880" lon="35.6294729747"><ele>1499.79</ele><time>2015-11-23T10:15:04Z</time></trkpt><trkpt lat="30.6554955617" lon="35.6295106094"><ele>1499.79</ele><time>2015-11-23T10:15:05Z</time></trkpt><trkpt lat="30.6551389117" lon="35.6299848575"><ele>1496.91</ele><time>2015-11-23T10:15:16Z</time></trkpt><trkpt lat="30.6549126003" lon="35.6303338800"><ele>1494.51</ele><time>2015-11-23T10:15:26Z</time></trkpt><trkpt lat="30.6547868717" lon="35.6305178627"><ele>1493.06</ele><time>2015-11-23T10:15:33Z</time></trkpt><trkpt lat="30.6547612231" lon="35.6305557489"><ele>1492.58</ele><time>2015-11-23T10:15:34Z</time></trkpt><trkpt lat="30.6547352392" lon="35.6305970717"><ele>1492.10</ele><time>2015-11-23T10:15:35Z</time></trkpt><trkpt lat="30.6545474008" lon="35.6308562402"><ele>1489.70</ele><time>2015-11-23T10:15:41Z</time></trkpt><trkpt lat="30.6543018110" lon="35.6312379520"><ele>1487.30</ele><time>2015-11-23T10:15:50Z</time></trkpt><trkpt lat="30.6542249490" lon="35.6313709728"><ele>1487.30</ele><time>2015-11-23T10:15:53Z</time></trkpt><trkpt lat="30.6542026531" lon="35.6314111222"><ele>1487.30</ele><time>2015-11-23T10:15:54Z</time></trkpt><trkpt lat="30.6538579892" lon="35.6319695245"><ele>1488.26</ele><time>2015-11-23T10:16:09Z</time></trkpt><trkpt lat="30.6535841525" lon="35.6323929783"><ele>1489.70</ele><time>2015-11-23T10:16:26Z</time></trkpt><trkpt lat="30.6534041092" lon="35.6327130832"><ele>1487.30</ele><time>2015-11-23T10:16:40Z</time></trkpt><trkpt lat="30.6532523129" lon="35.6329967268"><ele>1485.37</ele><time>2015-11-23T10:16:50Z</time></trkpt><trkpt lat="30.6530762929" lon="35.6333149876"><ele>1482.01</ele><time>2015-11-23T10:16:57Z</time></trkpt><trkpt lat="30.6529897079" lon="35.6334690470"><ele>1479.13</ele><time>2015-11-23T10:16:59Z</time></trkpt><trkpt lat="30.6527765561" lon="35.6338424608"><ele>1474.32</ele><time>2015-11-23T10:17:03Z</time></trkpt><trkpt lat="30.6526086666" lon="35.6341360789"><ele>1470.95</ele><time>2015-11-23T10:17:06Z</time></trkpt><trkpt lat="30.6524972711" lon="35.6343385018"><ele>1467.59</ele><time>2015-11-23T10:17:08Z</time></trkpt><trkpt lat="30.6523764040" lon="35.6345590297"><ele>1463.74</ele><time>2015-11-23T10:17:10Z</time></trkpt><trkpt lat="30.6522521842" lon="35.6347885262"><ele>1459.42</ele><time>2015-11-23T10:17:12Z</time></trkpt><trkpt lat="30.6521301437" lon="35.6350120716"><ele>1456.05</ele><time>2015-11-23T10:17:14Z</time></trkpt><trkpt lat="30.6519438978" lon="35.6353317574"><ele>1451.73</ele><time>2015-11-23T10:17:17Z</time></trkpt><trkpt lat="30.6518259645" lon="35.6355346832"><ele>1448.84</ele><time>2015-11-23T10:17:19Z</time></trkpt><trkpt lat="30.6516604219" lon="35.6358054187"><ele>1445.48</ele><time>2015-11-23T10:17:22Z</time></trkpt><trkpt lat="30.6514951307" lon="35.6360782497"><ele>1442.11</ele><time>2015-11-23T10:17:26Z</time></trkpt><trkpt lat="30.6514124852" lon="35.6361982785"><ele>1439.71</ele><time>2015-11-23T10:17:29Z</time></trkpt><trkpt lat="30.6513432506" lon="35.6362759788"><ele>1438.75</ele><time>2015-11-23T10:17:32Z</time></trkpt><trkpt lat="30.6512943842" lon="35.6363049801"><ele>1437.79</ele><time>2015-11-23T10:17:41Z</time></trkpt><trkpt lat="30.6513290852" lon="35.6362914853"><ele>1438.27</ele><time>2015-11-23T10:18:08Z</time></trkpt><trkpt lat="30.6513179373" lon="35.6363083329"><ele>1438.27</ele><time>2015-11-23T10:19:00Z</time></trkpt><trkpt lat="30.6513603497" lon="35.6362892222"><ele>1438.27</ele><time>2015-11-23T10:19:39Z</time></trkpt><trkpt lat="30.6514007505" lon="35.6362684350"><ele>1438.27</ele><time>2015-11-23T10:20:18Z</time></trkpt><trkpt lat="30.6513642892" lon="35.6362682674"><ele>1438.75</ele><time>2015-11-23T10:21:00Z</time></trkpt><trkpt lat="30.6513562426" lon="35.6362790801"><ele>1438.75</ele><time>2015-11-23T10:21:57Z</time></trkpt><trkpt lat="30.6513787061" lon="35.6362691056"><ele>1439.71</ele><time>2015-11-23T10:22:35Z</time></trkpt><trkpt lat="30.6513709109" lon="35.6362657528"><ele>1439.71</ele><time>2015-11-23T10:23:21Z</time></trkpt><trkpt lat="30.6513417419" lon="35.6362816785"><ele>1439.71</ele><time>2015-11-23T10:24:03Z</time></trkpt><trkpt lat="30.6513139140" lon="35.6363001186"><ele>1439.71</ele><time>2015-11-23T10:24:39Z</time></trkpt><trkpt lat="30.6513037719" lon="35.6363005377"><ele>1439.71</ele><time>2015-11-23T10:25:11Z</time></trkpt><trkpt lat="30.6513028499" lon="35.6362850312"><ele>1439.71</ele><time>2015-11-23T10:25:52Z</time></trkpt><trkpt lat="30.6512689870" lon="35.6363393459"><ele>1439.23</ele><time>2015-11-23T10:26:16Z</time></trkpt><trkpt lat="30.6512681488" lon="35.6363504101"><ele>1439.23</ele><time>2015-11-23T10:26:17Z</time></trkpt><trkpt lat="30.6512632873" lon="35.6363644917"><ele>1439.23</ele><time>2015-11-23T10:26:18Z</time></trkpt><trkpt lat="30.6512565818" lon="35.6363799144"><ele>1439.23</ele><time>2015-11-23T10:26:19Z</time></trkpt><trkpt lat="30.6512527261" lon="35.6363993604"><ele>1439.23</ele><time>2015-11-23T10:26:20Z</time></trkpt><trkpt lat="30.6512507983" lon="35.6364228297"><ele>1439.23</ele><time>2015-11-23T10:26:21Z</time></trkpt><trkpt lat="30.6510754488" lon="35.6367570162"><ele>1438.27</ele><time>2015-11-23T10:26:32Z</time></trkpt><trkpt lat="30.6507438608" lon="35.6372248102"><ele>1440.19</ele><time>2015-11-23T10:26:46Z</time></trkpt><trkpt lat="30.6505519152" lon="35.6375102140"><ele>1442.60</ele><time>2015-11-23T10:27:01Z</time></trkpt><trkpt lat="30.6503885519" lon="35.6377474219"><ele>1445.00</ele><time>2015-11-23T10:27:18Z</time></trkpt><trkpt lat="30.6502050720" lon="35.6379583105"><ele>1447.40</ele><time>2015-11-23T10:27:35Z</time></trkpt><trkpt lat="30.6501443032" lon="35.6380179059"><ele>1447.40</ele><time>2015-11-23T10:27:40Z</time></trkpt><trkpt lat="30.6501288805" lon="35.6380272936"><ele>1447.40</ele><time>2015-11-23T10:27:41Z</time></trkpt><trkpt lat="30.6498557981" lon="35.6382505037"><ele>1446.92</ele><time>2015-11-23T10:27:56Z</time></trkpt><trkpt lat="30.6493574101" lon="35.6385835167"><ele>1443.56</ele><time>2015-11-23T10:28:08Z</time></trkpt><trkpt lat="30.6484447047" lon="35.6392024364"><ele>1441.15</ele><time>2015-11-23T10:28:23Z</time></trkpt><trkpt lat="30.6475936063" lon="35.6397127267"><ele>1438.27</ele><time>2015-11-23T10:28:40Z</time></trkpt><trkpt lat="30.6472585816" lon="35.6399497669"><ele>1437.31</ele><time>2015-11-23T10:28:46Z</time></trkpt><trkpt lat="30.6466819067" lon="35.6403304730"><ele>1435.39</ele><time>2015-11-23T10:28:57Z</time></trkpt><trkpt lat="30.6459482387" lon="35.6407447904"><ele>1432.50</ele><time>2015-11-23T10:29:09Z</time></trkpt><trkpt lat="30.6455863081" lon="35.6408566050"><ele>1429.14</ele><time>2015-11-23T10:29:14Z</time></trkpt><trkpt lat="30.6455030758" lon="35.6408789009"><ele>1429.14</ele><time>2015-11-23T10:29:15Z</time></trkpt><trkpt lat="30.6452454161" lon="35.6409389153"><ele>1427.21</ele><time>2015-11-23T10:29:18Z</time></trkpt><trkpt lat="30.6450794544" lon="35.6409904640"><ele>1426.25</ele><time>2015-11-23T10:29:20Z</time></trkpt><trkpt lat="30.6449994911" lon="35.6410280149"><ele>1425.77</ele><time>2015-11-23T10:29:21Z</time></trkpt><trkpt lat="30.6449196115" lon="35.6410729419"><ele>1425.29</ele><time>2015-11-23T10:29:22Z</time></trkpt><trkpt lat="30.6448406540" lon="35.6411248259"><ele>1424.33</ele><time>2015-11-23T10:29:23Z</time></trkpt><trkpt lat="30.6447612774" lon="35.6411826611"><ele>1422.89</ele><time>2015-11-23T10:29:24Z</time></trkpt><trkpt lat="30.6444307789" lon="35.6414349563"><ele>1420.00</ele><time>2015-11-23T10:29:28Z</time></trkpt><trkpt lat="30.6441730354" lon="35.6416389719"><ele>1417.12</ele><time>2015-11-23T10:29:31Z</time></trkpt><trkpt lat="30.6437682733" lon="35.6419493537"><ele>1414.72</ele><time>2015-11-23T10:29:36Z</time></trkpt><trkpt lat="30.6434379425" lon="35.6421824545"><ele>1414.72</ele><time>2015-11-23T10:29:41Z</time></trkpt><trkpt lat="30.6430202723" lon="35.6423661020"><ele>1411.35</ele><time>2015-11-23T10:29:51Z</time></trkpt><trkpt lat="30.6427082978" lon="35.6425127853"><ele>1409.91</ele><time>2015-11-23T10:29:57Z</time></trkpt><trkpt lat="30.6423591077" lon="35.6426181458"><ele>1406.55</ele><time>2015-11-23T10:30:02Z</time></trkpt><trkpt lat="30.6422798987" lon="35.6426429562"><ele>1406.55</ele><time>2015-11-23T10:30:03Z</time></trkpt><trkpt lat="30.6416164711" lon="35.6428436190"><ele>1403.66</ele><time>2015-11-23T10:30:11Z</time></trkpt><trkpt lat="30.6409338489" lon="35.6430676673"><ele>1400.30</ele><time>2015-11-23T10:30:20Z</time></trkpt><trkpt lat="30.6405725051" lon="35.6431789789"><ele>1399.34</ele><time>2015-11-23T10:30:25Z</time></trkpt><trkpt lat="30.6400187965" lon="35.6432749517"><ele>1396.93</ele><time>2015-11-23T10:30:32Z</time></trkpt><trkpt lat="30.6396453828" lon="35.6432627980"><ele>1393.57</ele><time>2015-11-23T10:30:36Z</time></trkpt><trkpt lat="30.6390210986" lon="35.6432653125"><ele>1390.20</ele><time>2015-11-23T10:30:42Z</time></trkpt><trkpt lat="30.6386997364" lon="35.6432788074"><ele>1387.32</ele><time>2015-11-23T10:30:45Z</time></trkpt><trkpt lat="30.6385947112" lon="35.6432847586"><ele>1387.32</ele><time>2015-11-23T10:30:46Z</time></trkpt><trkpt lat="30.6379704271" lon="35.6432872731"><ele>1383.96</ele><time>2015-11-23T10:30:52Z</time></trkpt><trkpt lat="30.6375444587" lon="35.6432851776"><ele>1381.07</ele><time>2015-11-23T10:30:56Z</time></trkpt><trkpt lat="30.6371057499" lon="35.6432810705"><ele>1377.71</ele><time>2015-11-23T10:31:00Z</time></trkpt><trkpt lat="30.6365801208" lon="35.6432849262"><ele>1374.34</ele><time>2015-11-23T10:31:05Z</time></trkpt><trkpt lat="30.6359555013" lon="35.6432823278"><ele>1371.46</ele><time>2015-11-23T10:31:11Z</time></trkpt><trkpt lat="30.6348241959" lon="35.6432565115"><ele>1370.50</ele><time>2015-11-23T10:31:24Z</time></trkpt><trkpt lat="30.6339398213" lon="35.6431329623"><ele>1367.13</ele><time>2015-11-23T10:31:36Z</time></trkpt><trkpt lat="30.6338632107" lon="35.6431220658"><ele>1366.65</ele><time>2015-11-23T10:31:37Z</time></trkpt><trkpt lat="30.6326381955" lon="35.6429534219"><ele>1363.77</ele><time>2015-11-23T10:31:54Z</time></trkpt><trkpt lat="30.6315983366" lon="35.6427939143"><ele>1361.36</ele><time>2015-11-23T10:32:08Z</time></trkpt><trkpt lat="30.6304191705" lon="35.6426310539"><ele>1361.36</ele><time>2015-11-23T10:32:26Z</time></trkpt><trkpt lat="30.6302561425" lon="35.6426107697"><ele>1361.36</ele><time>2015-11-23T10:32:29Z</time></trkpt><trkpt lat="30.6296036951" lon="35.6425580475"><ele>1362.33</ele><time>2015-11-23T10:32:43Z</time></trkpt><trkpt lat="30.6286864635" lon="35.6425408646"><ele>1361.36</ele><time>2015-11-23T10:33:01Z</time></trkpt><trkpt lat="30.6276569143" lon="35.6425210834"><ele>1359.92</ele><time>2015-11-23T10:33:20Z</time></trkpt><trkpt lat="30.6268643215" lon="35.6425105222"><ele>1358.96</ele><time>2015-11-23T10:33:37Z</time></trkpt><trkpt lat="30.6260817870" lon="35.6424913276"><ele>1356.08</ele><time>2015-11-23T10:33:52Z</time></trkpt><trkpt lat="30.6257492770" lon="35.6424917467"><ele>1353.19</ele><time>2015-11-23T10:33:57Z</time></trkpt><trkpt lat="30.6249167025" lon="35.6424872205"><ele>1349.83</ele><time>2015-11-23T10:34:08Z</time></trkpt><trkpt lat="30.6247556861" lon="35.6424849574"><ele>1348.87</ele><time>2015-11-23T10:34:10Z</time></trkpt><trkpt lat="30.6236642785" lon="35.6425073370"><ele>1345.98</ele><time>2015-11-23T10:34:25Z</time></trkpt><trkpt lat="30.6234700698" lon="35.6424945965"><ele>1345.50</ele><time>2015-11-23T10:34:28Z</time></trkpt><trkpt lat="30.6231575087" lon="35.6424832810"><ele>1345.02</ele><time>2015-11-23T10:34:33Z</time></trkpt><trkpt lat="30.6224373356" lon="35.6424859632"><ele>1344.06</ele><time>2015-11-23T10:34:46Z</time></trkpt><trkpt lat="30.6219355110" lon="35.6424969435"><ele>1343.58</ele><time>2015-11-23T10:34:55Z</time></trkpt><trkpt lat="30.6215317547" lon="35.6425253581"><ele>1340.70</ele><time>2015-11-23T10:35:02Z</time></trkpt><trkpt lat="30.6209056266" lon="35.6425536890"><ele>1337.33</ele><time>2015-11-23T10:35:12Z</time></trkpt><trkpt lat="30.6206074823" lon="35.6425720453"><ele>1335.41</ele><time>2015-11-23T10:35:16Z</time></trkpt><trkpt lat="30.6201204099" lon="35.6425990351"><ele>1331.56</ele><time>2015-11-23T10:35:22Z</time></trkpt><trkpt lat="30.6196651049" lon="35.6426373404"><ele>1328.20</ele><time>2015-11-23T10:35:27Z</time></trkpt><trkpt lat="30.6191181019" lon="35.6426834408"><ele>1325.31</ele><time>2015-11-23T10:35:33Z</time></trkpt><trkpt lat="30.6189386453" lon="35.6426958460"><ele>1324.35</ele><time>2015-11-23T10:35:35Z</time></trkpt><trkpt lat="30.6185823306" lon="35.6427246798"><ele>1321.47</ele><time>2015-11-23T10:35:39Z</time></trkpt><trkpt lat="30.6183163729" lon="35.6427349057"><ele>1320.03</ele><time>2015-11-23T10:35:42Z</time></trkpt><trkpt lat="30.6181397662" lon="35.6427439582"><ele>1318.59</ele><time>2015-11-23T10:35:44Z</time></trkpt><trkpt lat="30.6180502474" lon="35.6427490711"><ele>1318.10</ele><time>2015-11-23T10:35:45Z</time></trkpt><trkpt lat="30.6179612316" lon="35.6427515857"><ele>1317.14</ele><time>2015-11-23T10:35:46Z</time></trkpt><trkpt lat="30.6178707909" lon="35.6427546870"><ele>1316.66</ele><time>2015-11-23T10:35:47Z</time></trkpt><trkpt lat="30.6177800987" lon="35.6427565310"><ele>1315.70</ele><time>2015-11-23T10:35:48Z</time></trkpt><trkpt lat="30.6176885683" lon="35.6427603029"><ele>1315.70</ele><time>2015-11-23T10:35:49Z</time></trkpt><trkpt lat="30.6173141487" lon="35.6427843589"><ele>1311.86</ele><time>2015-11-23T10:35:53Z</time></trkpt><trkpt lat="30.6171169225" lon="35.6428009551"><ele>1311.38</ele><time>2015-11-23T10:35:55Z</time></trkpt><trkpt lat="30.6161220744" lon="35.6428727880"><ele>1308.01</ele><time>2015-11-23T10:36:06Z</time></trkpt><trkpt lat="30.6151107140" lon="35.6429440342"><ele>1305.13</ele><time>2015-11-23T10:36:18Z</time></trkpt><trkpt lat="30.6140687596" lon="35.6431232393"><ele>1303.69</ele><time>2015-11-23T10:36:30Z</time></trkpt><trkpt lat="30.6133120414" lon="35.6434953120"><ele>1305.13</ele><time>2015-11-23T10:36:44Z</time></trkpt><trkpt lat="30.6131793559" lon="35.6435767002"><ele>1305.13</ele><time>2015-11-23T10:36:47Z</time></trkpt><trkpt lat="30.6124735996" lon="35.6438829750"><ele>1306.57</ele><time>2015-11-23T10:37:04Z</time></trkpt><trkpt lat="30.6119356491" lon="35.6438927818"><ele>1308.97</ele><time>2015-11-23T10:37:19Z</time></trkpt><trkpt lat="30.6114599761" lon="35.6438667141"><ele>1310.90</ele><time>2015-11-23T10:37:33Z</time></trkpt><trkpt lat="30.6110117119" lon="35.6438610982"><ele>1313.78</ele><time>2015-11-23T10:37:49Z</time></trkpt><trkpt lat="30.6104888488" lon="35.6439684704"><ele>1314.26</ele><time>2015-11-23T10:38:07Z</time></trkpt><trkpt lat="30.6098180450" lon="35.6441477593"><ele>1314.26</ele><time>2015-11-23T10:38:24Z</time></trkpt><trkpt lat="30.6091557909" lon="35.6443220191"><ele>1315.22</ele><time>2015-11-23T10:38:41Z</time></trkpt><trkpt lat="30.6083404832" lon="35.6445298903"><ele>1316.66</ele><time>2015-11-23T10:39:03Z</time></trkpt><trkpt lat="30.6078490522" lon="35.6446546130"><ele>1316.18</ele><time>2015-11-23T10:39:15Z</time></trkpt><trkpt lat="30.6070282962" lon="35.6446827762"><ele>1313.78</ele><time>2015-11-23T10:39:30Z</time></trkpt><trkpt lat="30.6064352766" lon="35.6446637493"><ele>1310.41</ele><time>2015-11-23T10:39:38Z</time></trkpt><trkpt lat="30.6062881742" lon="35.6446469855"><ele>1309.93</ele><time>2015-11-23T10:39:40Z</time></trkpt><trkpt lat="30.6062146649" lon="35.6446479913"><ele>1310.41</ele><time>2015-11-23T10:39:41Z</time></trkpt><trkpt lat="30.6061425805" lon="35.6446540263"><ele>1309.93</ele><time>2015-11-23T10:39:42Z</time></trkpt><trkpt lat="30.6060709991" lon="35.6446610671"><ele>1309.93</ele><time>2015-11-23T10:39:43Z</time></trkpt><trkpt lat="30.6060004234" lon="35.6446619891"><ele>1309.93</ele><time>2015-11-23T10:39:44Z</time></trkpt><trkpt lat="30.6059294287" lon="35.6446612347"><ele>1308.97</ele><time>2015-11-23T10:39:45Z</time></trkpt><trkpt lat="30.6053157058" lon="35.6446213368"><ele>1306.09</ele><time>2015-11-23T10:39:53Z</time></trkpt><trkpt lat="30.6050743908" lon="35.6446046568"><ele>1305.13</ele><time>2015-11-23T10:39:56Z</time></trkpt><trkpt lat="30.6043439917" lon="35.6445735600"><ele>1301.76</ele><time>2015-11-23T10:40:05Z</time></trkpt><trkpt lat="30.6032142788" lon="35.6445003022"><ele>1303.20</ele><time>2015-11-23T10:40:21Z</time></trkpt><trkpt lat="30.6024655234" lon="35.6443205103"><ele>1302.24</ele><time>2015-11-23T10:40:36Z</time></trkpt><trkpt lat="30.6016035285" lon="35.6440427341"><ele>1299.84</ele><time>2015-11-23T10:40:51Z</time></trkpt><trkpt lat="30.6005731411" lon="35.6436915323"><ele>1299.84</ele><time>2015-11-23T10:41:10Z</time></trkpt><trkpt lat="30.5997769441" lon="35.6434589345"><ele>1298.40</ele><time>2015-11-23T10:41:24Z</time></trkpt><trkpt lat="30.5987118557" lon="35.6431266759"><ele>1297.44</ele><time>2015-11-23T10:41:42Z</time></trkpt><trkpt lat="30.5975784548" lon="35.6427683495"><ele>1297.92</ele><time>2015-11-23T10:42:04Z</time></trkpt><trkpt lat="30.5965768173" lon="35.6424531899"><ele>1297.92</ele><time>2015-11-23T10:42:24Z</time></trkpt><trkpt lat="30.5958516151" lon="35.6422254536"><ele>1297.44</ele><time>2015-11-23T10:42:38Z</time></trkpt><trkpt lat="30.5947426893" lon="35.6418681331"><ele>1295.99</ele><time>2015-11-23T10:42:58Z</time></trkpt><trkpt lat="30.5938905850" lon="35.6416063663"><ele>1297.44</ele><time>2015-11-23T10:43:15Z</time></trkpt><trkpt lat="30.5934857391" lon="35.6414775364"><ele>1297.92</ele><time>2015-11-23T10:43:25Z</time></trkpt><trkpt lat="30.5934444163" lon="35.6414685678"><ele>1298.40</ele><time>2015-11-23T10:43:26Z</time></trkpt><trkpt lat="30.5934028421" lon="35.6414557435"><ele>1297.44</ele><time>2015-11-23T10:43:27Z</time></trkpt><trkpt lat="30.5926778913" lon="35.6412130874"><ele>1296.48</ele><time>2015-11-23T10:43:45Z</time></trkpt><trkpt lat="30.5919426307" lon="35.6409582775"><ele>1295.99</ele><time>2015-11-23T10:44:02Z</time></trkpt><trkpt lat="30.5910585076" lon="35.6406281982"><ele>1294.55</ele><time>2015-11-23T10:44:20Z</time></trkpt><trkpt lat="30.5899056606" lon="35.6402046606"><ele>1292.15</ele><time>2015-11-23T10:44:41Z</time></trkpt><trkpt lat="30.5889010057" lon="35.6398361083"><ele>1290.23</ele><time>2015-11-23T10:44:58Z</time></trkpt><trkpt lat="30.5876156408" lon="35.6393695716"><ele>1287.34</ele><time>2015-11-23T10:45:19Z</time></trkpt><trkpt lat="30.5865805596" lon="35.6389754545"><ele>1286.38</ele><time>2015-11-23T10:45:37Z</time></trkpt><trkpt lat="30.5856630765" lon="35.6386343949"><ele>1284.46</ele><time>2015-11-23T10:45:53Z</time></trkpt><trkpt lat="30.5852796044" lon="35.6384918187"><ele>1283.50</ele><time>2015-11-23T10:46:00Z</time></trkpt><trkpt lat="30.5849221162" lon="35.6383629888"><ele>1282.06</ele><time>2015-11-23T10:46:07Z</time></trkpt><trkpt lat="30.5840296112" lon="35.6380318198"><ele>1280.61</ele><time>2015-11-23T10:46:22Z</time></trkpt><trkpt lat="30.5830804445" lon="35.6376839709"><ele>1281.09</ele><time>2015-11-23T10:46:38Z</time></trkpt><trkpt lat="30.5822602753" lon="35.6373249739"><ele>1280.13</ele><time>2015-11-23T10:46:55Z</time></trkpt><trkpt lat="30.5813895632" lon="35.6369229779"><ele>1278.69</ele><time>2015-11-23T10:47:12Z</time></trkpt><trkpt lat="30.5805957131" lon="35.6365601253"><ele>1277.73</ele><time>2015-11-23T10:47:28Z</time></trkpt><trkpt lat="30.5798627995" lon="35.6361988652"><ele>1277.25</ele><time>2015-11-23T10:47:45Z</time></trkpt><trkpt lat="30.5789645109" lon="35.6357685383"><ele>1277.25</ele><time>2015-11-23T10:48:04Z</time></trkpt><trkpt lat="30.5787893292" lon="35.6356843002"><ele>1277.25</ele><time>2015-11-23T10:48:08Z</time></trkpt><trkpt lat="30.5787506048" lon="35.6356616691"><ele>1277.73</ele><time>2015-11-23T10:48:09Z</time></trkpt><trkpt lat="30.5781359598" lon="35.6353346910"><ele>1277.73</ele><time>2015-11-23T10:48:25Z</time></trkpt><trkpt lat="30.5777414236" lon="35.6351537257"><ele>1278.21</ele><time>2015-11-23T10:48:37Z</time></trkpt><trkpt lat="30.5773763079" lon="35.6349759456"><ele>1278.69</ele><time>2015-11-23T10:48:50Z</time></trkpt><trkpt lat="30.5768631678" lon="35.6347321160"><ele>1278.21</ele><time>2015-11-23T10:49:05Z</time></trkpt><trkpt lat="30.5761412345" lon="35.6343868654"><ele>1277.25</ele><time>2015-11-23T10:49:24Z</time></trkpt><trkpt lat="30.5753968377" lon="35.6340422016"><ele>1276.77</ele><time>2015-11-23T10:49:43Z</time></trkpt><trkpt lat="30.5745224375" lon="35.6336132158"><ele>1276.77</ele><time>2015-11-23T10:50:04Z</time></trkpt><trkpt lat="30.5736648850" lon="35.6331937853"><ele>1276.29</ele><time>2015-11-23T10:50:24Z</time></trkpt><trkpt lat="30.5730196461" lon="35.6328712497"><ele>1276.77</ele><time>2015-11-23T10:50:39Z</time></trkpt><trkpt lat="30.5729409400" lon="35.6328383088"><ele>1276.77</ele><time>2015-11-23T10:50:41Z</time></trkpt><trkpt lat="30.5723190866" lon="35.6325476244"><ele>1277.73</ele><time>2015-11-23T10:50:58Z</time></trkpt><trkpt lat="30.5720082019" lon="35.6324082334"><ele>1276.77</ele><time>2015-11-23T10:51:12Z</time></trkpt><trkpt lat="30.5714145955" lon="35.6321395934"><ele>1276.29</ele><time>2015-11-23T10:51:29Z</time></trkpt><trkpt lat="30.5706717074" lon="35.6318328995"><ele>1273.88</ele><time>2015-11-23T10:51:46Z</time></trkpt><trkpt lat="30.5699379556" lon="35.6315675285"><ele>1272.92</ele><time>2015-11-23T10:52:04Z</time></trkpt><trkpt lat="30.5698173400" lon="35.6315365154"><ele>1272.92</ele><time>2015-11-23T10:52:07Z</time></trkpt><trkpt lat="30.5697765201" lon="35.6315223500"><ele>1272.92</ele><time>2015-11-23T10:52:08Z</time></trkpt><trkpt lat="30.5694820639" lon="35.6314350106"><ele>1271.96</ele><time>2015-11-23T10:52:15Z</time></trkpt><trkpt lat="30.5694353767" lon="35.6314221863"><ele>1271.48</ele><time>2015-11-23T10:52:16Z</time></trkpt><trkpt lat="30.5687545147" lon="35.6312257983"><ele>1271.00</ele><time>2015-11-23T10:52:31Z</time></trkpt><trkpt lat="30.5678767618" lon="35.6309507880"><ele>1269.56</ele><time>2015-11-23T10:52:50Z</time></trkpt><trkpt lat="30.5669313669" lon="35.6306851655"><ele>1266.67</ele><time>2015-11-23T10:53:08Z</time></trkpt><trkpt lat="30.5659359321" lon="35.6304140110"><ele>1266.19</ele><time>2015-11-23T10:53:26Z</time></trkpt><trkpt lat="30.5651398189" lon="35.6301941536"><ele>1268.12</ele><time>2015-11-23T10:53:44Z</time></trkpt><trkpt lat="30.5645315442" lon="35.6300442852"><ele>1268.60</ele><time>2015-11-23T10:54:03Z</time></trkpt><trkpt lat="30.5640251935" lon="35.6299124379"><ele>1268.60</ele><time>2015-11-23T10:54:20Z</time></trkpt><trkpt lat="30.5635185912" lon="35.6297700293"><ele>1266.67</ele><time>2015-11-23T10:54:33Z</time></trkpt><trkpt lat="30.5634707306" lon="35.6297555286"><ele>1266.67</ele><time>2015-11-23T10:54:34Z</time></trkpt><trkpt lat="30.5625569355" lon="35.6295155548"><ele>1263.79</ele><time>2015-11-23T10:54:48Z</time></trkpt><trkpt lat="30.5617556255" lon="35.6292960327"><ele>1260.43</ele><time>2015-11-23T10:54:58Z</time></trkpt><trkpt lat="30.5607519764" lon="35.6290066894"><ele>1257.06</ele><time>2015-11-23T10:55:10Z</time></trkpt><trkpt lat="30.5596971139" lon="35.6287735887"><ele>1258.02</ele><time>2015-11-23T10:55:25Z</time></trkpt><trkpt lat="30.5590088759" lon="35.6287020911"><ele>1260.43</ele><time>2015-11-23T10:55:40Z</time></trkpt><trkpt lat="30.5583576858" lon="35.6286209542"><ele>1261.87</ele><time>2015-11-23T10:55:59Z</time></trkpt><trkpt lat="30.5578935798" lon="35.6285882648"><ele>1263.31</ele><time>2015-11-23T10:56:15Z</time></trkpt><trkpt lat="30.5574862193" lon="35.6285408232"><ele>1264.75</ele><time>2015-11-23T10:56:29Z</time></trkpt><trkpt lat="30.5567708239" lon="35.6284590159"><ele>1267.16</ele><time>2015-11-23T10:56:51Z</time></trkpt><trkpt lat="30.5561886169" lon="35.6283837464"><ele>1268.60</ele><time>2015-11-23T10:57:09Z</time></trkpt><trkpt lat="30.5560968351" lon="35.6283761188"><ele>1271.48</ele><time>2015-11-23T10:57:12Z</time></trkpt><trkpt lat="30.5560666602" lon="35.6283715926"><ele>1268.60</ele><time>2015-11-23T10:57:13Z</time></trkpt><trkpt lat="30.5557683483" lon="35.6283258274"><ele>1268.12</ele><time>2015-11-23T10:57:26Z</time></trkpt><trkpt lat="30.5557608046" lon="35.6283349637"><ele>1268.60</ele><time>2015-11-23T10:57:38Z</time></trkpt><trkpt lat="30.5557332281" lon="35.6283518113"><ele>1268.12</ele><time>2015-11-23T10:57:41Z</time></trkpt><trkpt lat="30.5557187274" lon="35.6283511408"><ele>1268.12</ele><time>2015-11-23T10:57:42Z</time></trkpt><trkpt lat="30.5557033047" lon="35.6283461116"><ele>1268.12</ele><time>2015-11-23T10:57:43Z</time></trkpt><trkpt lat="30.5556836911" lon="35.6283410825"><ele>1268.12</ele><time>2015-11-23T10:57:44Z</time></trkpt><trkpt lat="30.5556624010" lon="35.6283384003"><ele>1268.12</ele><time>2015-11-23T10:57:45Z</time></trkpt><trkpt lat="30.5554177333" lon="35.6282919645"><ele>1267.64</ele><time>2015-11-23T10:57:57Z</time></trkpt><trkpt lat="30.5554132909" lon="35.6282981671"><ele>1267.64</ele><time>2015-11-23T10:58:13Z</time></trkpt><trkpt lat="30.5554246064" lon="35.6283004303"><ele>1267.64</ele><time>2015-11-23T10:58:38Z</time></trkpt><trkpt lat="30.5554134585" lon="35.6282870192"><ele>1267.16</ele><time>2015-11-23T10:59:01Z</time></trkpt><trkpt lat="30.5554093514" lon="35.6282810681"><ele>1266.67</ele><time>2015-11-23T10:59:34Z</time></trkpt><trkpt lat="30.5554161407" lon="35.6282768771"><ele>1267.16</ele><time>2015-11-23T11:00:07Z</time></trkpt><trkpt lat="30.5554218404" lon="35.6282703392"><ele>1267.16</ele><time>2015-11-23T11:00:47Z</time></trkpt><trkpt lat="30.5554212537" lon="35.6282627955"><ele>1266.67</ele><time>2015-11-23T11:01:19Z</time></trkpt><trkpt lat="30.5554196611" lon="35.6282746140"><ele>1266.67</ele><time>2015-11-23T11:01:49Z</time></trkpt><trkpt lat="30.5554168951" lon="35.6282696687"><ele>1266.67</ele><time>2015-11-23T11:02:34Z</time></trkpt><trkpt lat="30.5554194096" lon="35.6282638013"><ele>1266.67</ele><time>2015-11-23T11:03:03Z</time></trkpt><trkpt lat="30.5554132070" lon="35.6282595266"><ele>1266.67</ele><time>2015-11-23T11:03:39Z</time></trkpt><trkpt lat="30.5554147996" lon="35.6282691658"><ele>1266.67</ele><time>2015-11-23T11:04:18Z</time></trkpt><trkpt lat="30.5554096028" lon="35.6282665674"><ele>1266.19</ele><time>2015-11-23T11:05:07Z</time></trkpt><trkpt lat="30.5554085970" lon="35.6282688305"><ele>1266.19</ele><time>2015-11-23T11:05:42Z</time></trkpt><trkpt lat="30.5554112792" lon="35.6282736920"><ele>1265.71</ele><time>2015-11-23T11:06:27Z</time></trkpt><trkpt lat="30.5554070044" lon="35.6282638013"><ele>1265.71</ele><time>2015-11-23T11:07:07Z</time></trkpt><trkpt lat="30.5554107763" lon="35.6282673217"><ele>1265.23</ele><time>2015-11-23T11:07:53Z</time></trkpt><trkpt lat="30.5554114468" lon="35.6282648072"><ele>1265.23</ele><time>2015-11-23T11:08:46Z</time></trkpt><trkpt lat="30.5554167274" lon="35.6283103209"><ele>1264.75</ele><time>2015-11-23T11:09:29Z</time></trkpt><trkpt lat="30.5554220919" lon="35.6283140089"><ele>1264.75</ele><time>2015-11-23T11:10:26Z</time></trkpt><trkpt lat="30.5554189067" lon="35.6283163559"><ele>1264.75</ele><time>2015-11-23T11:11:10Z</time></trkpt><trkpt lat="30.5554114468" lon="35.6283218041"><ele>1264.27</ele><time>2015-11-23T11:11:58Z</time></trkpt><trkpt lat="30.5554080103" lon="35.6283145957"><ele>1264.75</ele><time>2015-11-23T11:12:39Z</time></trkpt><trkpt lat="30.5554134585" lon="35.6283178646"><ele>1264.75</ele><time>2015-11-23T11:13:29Z</time></trkpt><trkpt lat="30.5554142967" lon="35.6283233967"><ele>1264.75</ele><time>2015-11-23T11:14:06Z</time></trkpt><trkpt lat="30.5554082617" lon="35.6283251569"><ele>1265.23</ele><time>2015-11-23T11:14:43Z</time></trkpt><trkpt lat="30.5554124527" lon="35.6283187866"><ele>1265.23</ele><time>2015-11-23T11:15:18Z</time></trkpt><trkpt lat="30.5554172304" lon="35.6283154339"><ele>1264.75</ele><time>2015-11-23T11:16:08Z</time></trkpt><trkpt lat="30.5554133747" lon="35.6283200439"><ele>1264.75</ele><time>2015-11-23T11:16:48Z</time></trkpt><trkpt lat="30.5554233491" lon="35.6283102371"><ele>1264.75</ele><time>2015-11-23T11:17:35Z</time></trkpt><trkpt lat="30.5554231815" lon="35.6283068005"><ele>1264.75</ele><time>2015-11-23T11:18:15Z</time></trkpt><trkpt lat="30.5554177333" lon="35.6283142604"><ele>1264.27</ele><time>2015-11-23T11:18:57Z</time></trkpt><trkpt lat="30.5554173142" lon="35.6283130869"><ele>1264.27</ele><time>2015-11-23T11:19:45Z</time></trkpt><trkpt lat="30.5554212537" lon="35.6283123326"><ele>1263.79</ele><time>2015-11-23T11:20:21Z</time></trkpt><trkpt lat="30.5554140452" lon="35.6283127517"><ele>1263.79</ele><time>2015-11-23T11:20:52Z</time></trkpt><trkpt lat="30.5554164760" lon="35.6283131707"><ele>1264.27</ele><time>2015-11-23T11:21:29Z</time></trkpt><trkpt lat="30.5554132070" lon="35.6283075549"><ele>1264.27</ele><time>2015-11-23T11:21:49Z</time></trkpt><trkpt lat="30.5554052442" lon="35.6283209659"><ele>1263.79</ele><time>2015-11-23T11:22:20Z</time></trkpt><trkpt lat="30.5553925876" lon="35.6283271685"><ele>1263.79</ele><time>2015-11-23T11:22:22Z</time></trkpt><trkpt lat="30.5553795118" lon="35.6283339579"><ele>1264.27</ele><time>2015-11-23T11:22:23Z</time></trkpt><trkpt lat="30.5553655140" lon="35.6283349637"><ele>1263.79</ele><time>2015-11-23T11:22:24Z</time></trkpt><trkpt lat="30.5553510971" lon="35.6283326168"><ele>1263.79</ele><time>2015-11-23T11:22:25Z</time></trkpt><trkpt lat="30.5553361773" lon="35.6283312757"><ele>1263.79</ele><time>2015-11-23T11:22:26Z</time></trkpt><trkpt lat="30.5553192459" lon="35.6283311080"><ele>1263.79</ele><time>2015-11-23T11:22:27Z</time></trkpt><trkpt lat="30.5551330000" lon="35.6283050403"><ele>1263.79</ele><time>2015-11-23T11:22:36Z</time></trkpt><trkpt lat="30.5551209301" lon="35.6282983348"><ele>1263.31</ele><time>2015-11-23T11:22:37Z</time></trkpt><trkpt lat="30.5550908390" lon="35.6282903720"><ele>1263.31</ele><time>2015-11-23T11:22:47Z</time></trkpt><trkpt lat="30.5550925992" lon="35.6282903720"><ele>1262.83</ele><time>2015-11-23T11:23:12Z</time></trkpt><trkpt lat="30.5550818704" lon="35.6282771286"><ele>1262.83</ele><time>2015-11-23T11:23:51Z</time></trkpt><trkpt lat="30.5550642684" lon="35.6282857619"><ele>1262.83</ele><time>2015-11-23T11:23:55Z</time></trkpt><trkpt lat="30.5548188463" lon="35.6282635499"><ele>1262.83</ele><time>2015-11-23T11:24:09Z</time></trkpt><trkpt lat="30.5543555785" lon="35.6282289326"><ele>1261.39</ele><time>2015-11-23T11:24:27Z</time></trkpt><trkpt lat="30.5540302768" lon="35.6281926390"><ele>1260.91</ele><time>2015-11-23T11:24:38Z</time></trkpt><trkpt lat="30.5535870418" lon="35.6281495560"><ele>1259.94</ele><time>2015-11-23T11:24:52Z</time></trkpt><trkpt lat="30.5530012306" lon="35.6280857697"><ele>1258.50</ele><time>2015-11-23T11:25:04Z</time></trkpt><trkpt lat="30.5519566778" lon="35.6279718596"><ele>1258.02</ele><time>2015-11-23T11:25:23Z</time></trkpt><trkpt lat="30.5515934061" lon="35.6279351469"><ele>1258.02</ele><time>2015-11-23T11:25:31Z</time></trkpt><trkpt lat="30.5515487306" lon="35.6279292796"><ele>1258.02</ele><time>2015-11-23T11:25:32Z</time></trkpt><trkpt lat="30.5509486701" lon="35.6278740428"><ele>1258.02</ele><time>2015-11-23T11:25:45Z</time></trkpt><trkpt lat="30.5502918642" lon="35.6278654095"><ele>1258.50</ele><time>2015-11-23T11:26:02Z</time></trkpt><trkpt lat="30.5498287641" lon="35.6278952491"><ele>1260.43</ele><time>2015-11-23T11:26:17Z</time></trkpt><trkpt lat="30.5492043123" lon="35.6279650703"><ele>1262.83</ele><time>2015-11-23T11:26:40Z</time></trkpt><trkpt lat="30.5486511067" lon="35.6280719396"><ele>1263.31</ele><time>2015-11-23T11:27:01Z</time></trkpt><trkpt lat="30.5481536407" lon="35.6282055471"><ele>1264.27</ele><time>2015-11-23T11:27:19Z</time></trkpt><trkpt lat="30.5476194620" lon="35.6283931341"><ele>1265.23</ele><time>2015-11-23T11:27:37Z</time></trkpt><trkpt lat="30.5470610596" lon="35.6286080461"><ele>1266.19</ele><time>2015-11-23T11:27:56Z</time></trkpt><trkpt lat="30.5463646073" lon="35.6288898457"><ele>1267.16</ele><time>2015-11-23T11:28:20Z</time></trkpt><trkpt lat="30.5458050314" lon="35.6290739961"><ele>1267.16</ele><time>2015-11-23T11:28:37Z</time></trkpt><trkpt lat="30.5450989399" lon="35.6291646883"><ele>1267.16</ele><time>2015-11-23T11:28:57Z</time></trkpt><trkpt lat="30.5443369411" lon="35.6290924363"><ele>1266.19</ele><time>2015-11-23T11:29:14Z</time></trkpt><trkpt lat="30.5433320347" lon="35.6289494410"><ele>1265.71</ele><time>2015-11-23T11:29:35Z</time></trkpt><trkpt lat="30.5432835873" lon="35.6289433222"><ele>1265.23</ele><time>2015-11-23T11:29:36Z</time></trkpt><trkpt lat="30.5432354752" lon="35.6289365329"><ele>1265.71</ele><time>2015-11-23T11:29:37Z</time></trkpt><trkpt lat="30.5424254481" lon="35.6287983153"><ele>1265.23</ele><time>2015-11-23T11:29:56Z</time></trkpt><trkpt lat="30.5423858017" lon="35.6287906878"><ele>1265.23</ele><time>2015-11-23T11:29:57Z</time></trkpt><trkpt lat="30.5420851428" lon="35.6287550647"><ele>1264.75</ele><time>2015-11-23T11:30:04Z</time></trkpt><trkpt lat="30.5415450968" lon="35.6286552362"><ele>1264.75</ele><time>2015-11-23T11:30:21Z</time></trkpt><trkpt lat="30.5413592700" lon="35.6285579223"><ele>1265.23</ele><time>2015-11-23T11:30:35Z</time></trkpt><trkpt lat="30.5411172006" lon="35.6284221355"><ele>1264.75</ele><time>2015-11-23T11:30:49Z</time></trkpt><trkpt lat="30.5409965850" lon="35.6283338740"><ele>1265.23</ele><time>2015-11-23T11:31:02Z</time></trkpt><trkpt lat="30.5409866944" lon="35.6283446029"><ele>1265.23</ele><time>2015-11-23T11:31:18Z</time></trkpt><trkpt lat="30.5409742892" lon="35.6283339579"><ele>1264.75</ele><time>2015-11-23T11:31:19Z</time></trkpt><trkpt lat="30.5406980217" lon="35.6280426867"><ele>1264.75</ele><time>2015-11-23T11:31:30Z</time></trkpt><trkpt lat="30.5402792618" lon="35.6274276227"><ele>1265.23</ele><time>2015-11-23T11:31:48Z</time></trkpt><trkpt lat="30.5400379468" lon="35.6270596571"><ele>1265.71</ele><time>2015-11-23T11:32:03Z</time></trkpt><trkpt lat="30.5398156587" lon="35.6266926974"><ele>1266.19</ele><time>2015-11-23T11:32:18Z</time></trkpt><trkpt lat="30.5395870842" lon="35.6263759453"><ele>1266.67</ele><time>2015-11-23T11:32:33Z</time></trkpt><trkpt lat="30.5394256487" lon="35.6261799764"><ele>1266.67</ele><time>2015-11-23T11:32:47Z</time></trkpt><trkpt lat="30.5392110720" lon="35.6259531621"><ele>1267.16</ele><time>2015-11-23T11:33:02Z</time></trkpt><trkpt lat="30.5389581062" lon="35.6256667525"><ele>1267.16</ele><time>2015-11-23T11:33:14Z</time></trkpt><trkpt lat="30.5384634063" lon="35.6251281314"><ele>1266.67</ele><time>2015-11-23T11:33:30Z</time></trkpt><trkpt lat="30.5377849750" lon="35.6243913621"><ele>1267.64</ele><time>2015-11-23T11:33:51Z</time></trkpt><trkpt lat="30.5377522018" lon="35.6243592594"><ele>1267.64</ele><time>2015-11-23T11:33:52Z</time></trkpt><trkpt lat="30.5377190094" lon="35.6243270729"><ele>1267.64</ele><time>2015-11-23T11:33:53Z</time></trkpt><trkpt lat="30.5371273309" lon="35.6236896291"><ele>1269.08</ele><time>2015-11-23T11:34:13Z</time></trkpt><trkpt lat="30.5366211478" lon="35.6231509242"><ele>1270.52</ele><time>2015-11-23T11:34:32Z</time></trkpt><trkpt lat="30.5360225122" lon="35.6225025840"><ele>1272.92</ele><time>2015-11-23T11:34:55Z</time></trkpt><trkpt lat="30.5354961287" lon="35.6219276693"><ele>1274.36</ele><time>2015-11-23T11:35:15Z</time></trkpt><trkpt lat="30.5350098945" lon="35.6214043871"><ele>1275.81</ele><time>2015-11-23T11:35:33Z</time></trkpt><trkpt lat="30.5344395060" lon="35.6208047457"><ele>1276.77</ele><time>2015-11-23T11:35:54Z</time></trkpt><trkpt lat="30.5339645874" lon="35.6202920247"><ele>1277.73</ele><time>2015-11-23T11:36:12Z</time></trkpt><trkpt lat="30.5335050076" lon="35.6197939720"><ele>1278.21</ele><time>2015-11-23T11:36:29Z</time></trkpt><trkpt lat="30.5329003371" lon="35.6191577855"><ele>1279.17</ele><time>2015-11-23T11:36:50Z</time></trkpt><trkpt lat="30.5323499814" lon="35.6185689569"><ele>1280.13</ele><time>2015-11-23T11:37:08Z</time></trkpt><trkpt lat="30.5323205609" lon="35.6185365189"><ele>1280.13</ele><time>2015-11-23T11:37:09Z</time></trkpt><trkpt lat="30.5319953430" lon="35.6181742530"><ele>1280.61</ele><time>2015-11-23T11:37:23Z</time></trkpt><trkpt lat="30.5316179898" lon="35.6175689958"><ele>1281.09</ele><time>2015-11-23T11:37:40Z</time></trkpt><trkpt lat="30.5313721485" lon="35.6169369165"><ele>1282.06</ele><time>2015-11-23T11:37:55Z</time></trkpt><trkpt lat="30.5313572288" lon="35.6168922409"><ele>1282.06</ele><time>2015-11-23T11:37:56Z</time></trkpt><trkpt lat="30.5311898421" lon="35.6161743309"><ele>1284.46</ele><time>2015-11-23T11:38:14Z</time></trkpt><trkpt lat="30.5310166720" lon="35.6154088117"><ele>1285.42</ele><time>2015-11-23T11:38:35Z</time></trkpt><trkpt lat="30.5309047736" lon="35.6149514113"><ele>1284.94</ele><time>2015-11-23T11:38:48Z</time></trkpt><trkpt lat="30.5308011733" lon="35.6145187374"><ele>1285.42</ele><time>2015-11-23T11:38:58Z</time></trkpt><trkpt lat="30.5306184478" lon="35.6137181818"><ele>1287.34</ele><time>2015-11-23T11:39:16Z</time></trkpt><trkpt lat="30.5304702558" lon="35.6130625494"><ele>1289.75</ele><time>2015-11-23T11:39:34Z</time></trkpt><trkpt lat="30.5303245783" lon="35.6124954298"><ele>1291.67</ele><time>2015-11-23T11:39:51Z</time></trkpt><trkpt lat="30.5301944911" lon="35.6119786017"><ele>1293.11</ele><time>2015-11-23T11:40:08Z</time></trkpt><trkpt lat="30.5301834270" lon="35.6118674576"><ele>1294.07</ele><time>2015-11-23T11:40:19Z</time></trkpt><trkpt lat="30.5301933177" lon="35.6118631829"><ele>1292.15</ele><time>2015-11-23T11:40:41Z</time></trkpt><trkpt lat="30.5302035436" lon="35.6118459161"><ele>1292.15</ele><time>2015-11-23T11:41:15Z</time></trkpt><trkpt lat="30.5302076507" lon="35.6118434016"><ele>1291.67</ele><time>2015-11-23T11:41:54Z</time></trkpt><trkpt lat="30.5302116740" lon="35.6118458323"><ele>1292.15</ele><time>2015-11-23T11:42:35Z</time></trkpt><trkpt lat="30.5302062258" lon="35.6118400488"><ele>1291.67</ele><time>2015-11-23T11:43:14Z</time></trkpt><trkpt lat="30.5302020349" lon="35.6118408870"><ele>1291.67</ele><time>2015-11-23T11:43:46Z</time></trkpt><trkpt lat="30.5301891267" lon="35.6118433177"><ele>1292.15</ele><time>2015-11-23T11:44:15Z</time></trkpt><trkpt lat="30.5301970057" lon="35.6118407194"><ele>1292.15</ele><time>2015-11-23T11:44:43Z</time></trkpt><trkpt lat="30.5301701836" lon="35.6118368637"><ele>1291.67</ele><time>2015-11-23T11:45:22Z</time></trkpt><trkpt lat="30.5301574431" lon="35.6118496880"><ele>1292.15</ele><time>2015-11-23T11:45:53Z</time></trkpt><trkpt lat="30.5301453732" lon="35.6118558906"><ele>1291.67</ele><time>2015-11-23T11:46:28Z</time></trkpt><trkpt lat="30.5301596224" lon="35.6118378695"><ele>1291.67</ele><time>2015-11-23T11:46:48Z</time></trkpt><trkpt lat="30.5301462114" lon="35.6118463352"><ele>1291.67</ele><time>2015-11-23T11:47:34Z</time></trkpt><trkpt lat="30.5301434454" lon="35.6118239556"><ele>1292.15</ele><time>2015-11-23T11:47:52Z</time></trkpt><trkpt lat="30.5301128514" lon="35.6118103769"><ele>1292.15</ele><time>2015-11-23T11:48:18Z</time></trkpt><trkpt lat="30.5301057268" lon="35.6117751729"><ele>1292.15</ele><time>2015-11-23T11:48:23Z</time></trkpt><trkpt lat="30.5301012006" lon="35.6117603369"><ele>1292.15</ele><time>2015-11-23T11:48:24Z</time></trkpt><trkpt lat="30.5300967582" lon="35.6117463391"><ele>1292.15</ele><time>2015-11-23T11:48:25Z</time></trkpt><trkpt lat="30.5300933216" lon="35.6117335148"><ele>1291.67</ele><time>2015-11-23T11:48:26Z</time></trkpt><trkpt lat="30.5300903879" lon="35.6117200200"><ele>1291.67</ele><time>2015-11-23T11:48:27Z</time></trkpt><trkpt lat="30.5300891306" lon="35.6117048487"><ele>1291.67</ele><time>2015-11-23T11:48:28Z</time></trkpt><trkpt lat="30.5300868675" lon="35.6116915215"><ele>1291.67</ele><time>2015-11-23T11:48:29Z</time></trkpt><trkpt lat="30.5300861970" lon="35.6116781943"><ele>1291.67</ele><time>2015-11-23T11:48:30Z</time></trkpt><trkpt lat="30.5300857779" lon="35.6116642803"><ele>1291.67</ele><time>2015-11-23T11:48:31Z</time></trkpt><trkpt lat="30.5300820898" lon="35.6116507016"><ele>1291.67</ele><time>2015-11-23T11:48:32Z</time></trkpt><trkpt lat="30.5300758034" lon="35.6116381288"><ele>1291.67</ele><time>2015-11-23T11:48:33Z</time></trkpt><trkpt lat="30.5300697684" lon="35.6116270646"><ele>1292.15</ele><time>2015-11-23T11:48:34Z</time></trkpt><trkpt lat="30.5300607160" lon="35.6116019189"><ele>1291.67</ele><time>2015-11-23T11:48:36Z</time></trkpt><trkpt lat="30.5300605483" lon="35.6115869153"><ele>1291.67</ele><time>2015-11-23T11:48:37Z</time></trkpt><trkpt lat="30.5300591234" lon="35.6115714088"><ele>1291.67</ele><time>2015-11-23T11:48:38Z</time></trkpt><trkpt lat="30.5300528370" lon="35.6115559861"><ele>1291.67</ele><time>2015-11-23T11:48:39Z</time></trkpt><trkpt lat="30.5300443713" lon="35.6115415692"><ele>1291.67</ele><time>2015-11-23T11:48:40Z</time></trkpt><trkpt lat="30.5300354864" lon="35.6115289126"><ele>1291.67</ele><time>2015-11-23T11:48:41Z</time></trkpt><trkpt lat="30.5300259311" lon="35.6115191896"><ele>1292.15</ele><time>2015-11-23T11:48:42Z</time></trkpt><trkpt lat="30.5300175492" lon="35.6115082093"><ele>1292.15</ele><time>2015-11-23T11:48:43Z</time></trkpt><trkpt lat="30.5300157052" lon="35.6114950497"><ele>1291.67</ele><time>2015-11-23T11:48:44Z</time></trkpt><trkpt lat="30.5300219078" lon="35.6114813872"><ele>1291.67</ele><time>2015-11-23T11:48:45Z</time></trkpt><trkpt lat="30.5300317984" lon="35.6114685629"><ele>1291.67</ele><time>2015-11-23T11:48:46Z</time></trkpt><trkpt lat="30.5300373305" lon="35.6114530563"><ele>1291.67</ele><time>2015-11-23T11:48:47Z</time></trkpt><trkpt lat="30.5300356541" lon="35.6114358734"><ele>1291.67</ele><time>2015-11-23T11:48:48Z</time></trkpt><trkpt lat="30.5300314631" lon="35.6114190258"><ele>1291.67</ele><time>2015-11-23T11:48:49Z</time></trkpt><trkpt lat="30.5300273560" lon="35.6114025973"><ele>1291.67</ele><time>2015-11-23T11:48:50Z</time></trkpt><trkpt lat="30.5300207343" lon="35.6113858335"><ele>1291.67</ele><time>2015-11-23T11:48:51Z</time></trkpt><trkpt lat="30.5300156213" lon="35.6113677286"><ele>1291.67</ele><time>2015-11-23T11:48:52Z</time></trkpt><trkpt lat="30.5299065728" lon="35.6109595299"><ele>1291.19</ele><time>2015-11-23T11:49:10Z</time></trkpt><trkpt lat="30.5298095942" lon="35.6105989404"><ele>1291.19</ele><time>2015-11-23T11:49:25Z</time></trkpt><trkpt lat="30.5297046527" lon="35.6102714594"><ele>1291.19</ele><time>2015-11-23T11:49:39Z</time></trkpt><trkpt lat="30.5296520982" lon="35.6100704614"><ele>1291.67</ele><time>2015-11-23T11:49:52Z</time></trkpt><trkpt lat="30.5296421237" lon="35.6100202538"><ele>1291.67</ele><time>2015-11-23T11:49:55Z</time></trkpt><trkpt lat="30.5296360888" lon="35.6100092735"><ele>1291.67</ele><time>2015-11-23T11:49:56Z</time></trkpt><trkpt lat="30.5296310596" lon="35.6099961139"><ele>1291.67</ele><time>2015-11-23T11:49:57Z</time></trkpt><trkpt lat="30.5296270363" lon="35.6099785119"><ele>1291.19</ele><time>2015-11-23T11:49:58Z</time></trkpt><trkpt lat="30.5296212528" lon="35.6099577248"><ele>1291.19</ele><time>2015-11-23T11:49:59Z</time></trkpt><trkpt lat="30.5295902397" lon="35.6098117121"><ele>1291.67</ele><time>2015-11-23T11:50:10Z</time></trkpt><trkpt lat="30.5295776669" lon="35.6098129693"><ele>1291.19</ele><time>2015-11-23T11:50:32Z</time></trkpt><trkpt lat="30.5295721348" lon="35.6098039169"><ele>1290.71</ele><time>2015-11-23T11:51:04Z</time></trkpt><trkpt lat="30.5295654293" lon="35.6097751670"><ele>1291.19</ele><time>2015-11-23T11:51:39Z</time></trkpt><trkpt lat="30.5295091867" lon="35.6095122267"><ele>1291.19</ele><time>2015-11-23T11:51:52Z</time></trkpt><trkpt lat="30.5294685345" lon="35.6092620268"><ele>1292.15</ele><time>2015-11-23T11:52:05Z</time></trkpt><trkpt lat="30.5294074304" lon="35.6087766308"><ele>1292.15</ele><time>2015-11-23T11:52:22Z</time></trkpt><trkpt lat="30.5293355137" lon="35.6082186475"><ele>1293.59</ele><time>2015-11-23T11:52:40Z</time></trkpt><trkpt lat="30.5292518623" lon="35.6076263823"><ele>1295.51</ele><time>2015-11-23T11:52:59Z</time></trkpt><trkpt lat="30.5291957036" lon="35.6070526410"><ele>1297.44</ele><time>2015-11-23T11:53:17Z</time></trkpt><trkpt lat="30.5291649420" lon="35.6065299455"><ele>1298.40</ele><time>2015-11-23T11:53:33Z</time></trkpt><trkpt lat="30.5291558895" lon="35.6058130413"><ele>1299.84</ele><time>2015-11-23T11:53:54Z</time></trkpt><trkpt lat="30.5291617569" lon="35.6051648688"><ele>1300.32</ele><time>2015-11-23T11:54:11Z</time></trkpt><trkpt lat="30.5292512756" lon="35.6049342826"><ele>1300.32</ele><time>2015-11-23T11:54:16Z</time></trkpt><trkpt lat="30.5297970213" lon="35.6039381772"><ele>1301.28</ele><time>2015-11-23T11:54:37Z</time></trkpt><trkpt lat="30.5302901287" lon="35.6030621007"><ele>1303.20</ele><time>2015-11-23T11:54:57Z</time></trkpt><trkpt lat="30.5306324456" lon="35.6024634652"><ele>1305.13</ele><time>2015-11-23T11:55:13Z</time></trkpt><trkpt lat="30.5309904367" lon="35.6018448807"><ele>1306.57</ele><time>2015-11-23T11:55:29Z</time></trkpt><trkpt lat="30.5313452426" lon="35.6012312416"><ele>1308.49</ele><time>2015-11-23T11:55:46Z</time></trkpt><trkpt lat="30.5316977855" lon="35.6006183568"><ele>1310.90</ele><time>2015-11-23T11:56:07Z</time></trkpt><trkpt lat="30.5319473147" lon="35.6001613755"><ele>1313.78</ele><time>2015-11-23T11:56:24Z</time></trkpt><trkpt lat="30.5320062395" lon="35.5997529253"><ele>1315.22</ele><time>2015-11-23T11:56:38Z</time></trkpt><trkpt lat="30.5318681896" lon="35.5992521066"><ele>1315.70</ele><time>2015-11-23T11:56:51Z</time></trkpt><trkpt lat="30.5316407885" lon="35.5986330193"><ele>1316.18</ele><time>2015-11-23T11:57:06Z</time></trkpt><trkpt lat="30.5315757450" lon="35.5983943865"><ele>1316.18</ele><time>2015-11-23T11:57:11Z</time></trkpt><trkpt lat="30.5315614957" lon="35.5983477831"><ele>1316.18</ele><time>2015-11-23T11:57:12Z</time></trkpt><trkpt lat="30.5315428879" lon="35.5983030237"><ele>1316.18</ele><time>2015-11-23T11:57:13Z</time></trkpt><trkpt lat="30.5315240286" lon="35.5982564203"><ele>1316.66</ele><time>2015-11-23T11:57:14Z</time></trkpt><trkpt lat="30.5315070134" lon="35.5982075538"><ele>1316.18</ele><time>2015-11-23T11:57:15Z</time></trkpt><trkpt lat="30.5314183328" lon="35.5979655683"><ele>1316.66</ele><time>2015-11-23T11:57:20Z</time></trkpt><trkpt lat="30.5311662052" lon="35.5971226841"><ele>1318.10</ele><time>2015-11-23T11:57:38Z</time></trkpt><trkpt lat="30.5309792049" lon="35.5965558998"><ele>1319.07</ele><time>2015-11-23T11:57:50Z</time></trkpt><trkpt lat="30.5309602618" lon="35.5965103023"><ele>1319.07</ele><time>2015-11-23T11:57:51Z</time></trkpt><trkpt lat="30.5307877623" lon="35.5959646404"><ele>1320.51</ele><time>2015-11-23T11:58:03Z</time></trkpt><trkpt lat="30.5307708308" lon="35.5959218089"><ele>1320.51</ele><time>2015-11-23T11:58:04Z</time></trkpt><trkpt lat="30.5305995885" lon="35.5954073276"><ele>1321.95</ele><time>2015-11-23T11:58:16Z</time></trkpt><trkpt lat="30.5304979160" lon="35.5950785894"><ele>1321.95</ele><time>2015-11-23T11:58:29Z</time></trkpt><trkpt lat="30.5304071400" lon="35.5947535392"><ele>1321.95</ele><time>2015-11-23T11:58:41Z</time></trkpt><trkpt lat="30.5303065572" lon="35.5943963025"><ele>1322.43</ele><time>2015-11-23T11:58:53Z</time></trkpt><trkpt lat="30.5302222352" lon="35.5940809753"><ele>1321.95</ele><time>2015-11-23T11:59:08Z</time></trkpt><trkpt lat="30.5301212333" lon="35.5936961621"><ele>1321.47</ele><time>2015-11-23T11:59:26Z</time></trkpt><trkpt lat="30.5299751367" lon="35.5931994505"><ele>1320.03</ele><time>2015-11-23T11:59:38Z</time></trkpt><trkpt lat="30.5299600493" lon="35.5931508355"><ele>1319.55</ele><time>2015-11-23T11:59:39Z</time></trkpt><trkpt lat="30.5297509208" lon="35.5924410559"><ele>1318.59</ele><time>2015-11-23T11:59:55Z</time></trkpt><trkpt lat="30.5296974443" lon="35.5922618508"><ele>1318.59</ele><time>2015-11-23T11:59:59Z</time></trkpt><trkpt lat="30.5296674371" lon="35.5921660457"><ele>1318.10</ele><time>2015-11-23T12:00:01Z</time></trkpt><trkpt lat="30.5294647627" lon="35.5915109999"><ele>1317.62</ele><time>2015-11-23T12:00:15Z</time></trkpt><trkpt lat="30.5292889103" lon="35.5911475606"><ele>1318.10</ele><time>2015-11-23T12:00:28Z</time></trkpt><trkpt lat="30.5290801171" lon="35.5908507574"><ele>1317.62</ele><time>2015-11-23T12:00:37Z</time></trkpt><trkpt lat="30.5287918635" lon="35.5904800259"><ele>1319.07</ele><time>2015-11-23T12:00:50Z</time></trkpt><trkpt lat="30.5285898596" lon="35.5901831388"><ele>1321.47</ele><time>2015-11-23T12:01:05Z</time></trkpt><trkpt lat="30.5284678191" lon="35.5899571627"><ele>1323.39</ele><time>2015-11-23T12:01:18Z</time></trkpt><trkpt lat="30.5284644663" lon="35.5899393093"><ele>1323.39</ele><time>2015-11-23T12:01:19Z</time></trkpt><trkpt lat="30.5284611974" lon="35.5899196118"><ele>1323.39</ele><time>2015-11-23T12:01:20Z</time></trkpt><trkpt lat="30.5283016898" lon="35.5895283446"><ele>1325.31</ele><time>2015-11-23T12:01:36Z</time></trkpt><trkpt lat="30.5281043798" lon="35.5890514981"><ele>1326.76</ele><time>2015-11-23T12:01:52Z</time></trkpt><trkpt lat="30.5278868694" lon="35.5885101110"><ele>1328.68</ele><time>2015-11-23T12:02:11Z</time></trkpt><trkpt lat="30.5277464725" lon="35.5881709792"><ele>1329.64</ele><time>2015-11-23T12:02:26Z</time></trkpt><trkpt lat="30.5277370848" lon="35.5881314166"><ele>1329.16</ele><time>2015-11-23T12:02:40Z</time></trkpt><trkpt lat="30.5277423654" lon="35.5881135631"><ele>1328.68</ele><time>2015-11-23T12:02:56Z</time></trkpt><trkpt lat="30.5277544353" lon="35.5881237891"><ele>1327.72</ele><time>2015-11-23T12:03:24Z</time></trkpt><trkpt lat="30.5277629010" lon="35.5881159939"><ele>1327.72</ele><time>2015-11-23T12:03:58Z</time></trkpt><trkpt lat="30.5277627334" lon="35.5881174188"><ele>1328.20</ele><time>2015-11-23T12:04:25Z</time></trkpt><trkpt lat="30.5277660023" lon="35.5881137308"><ele>1327.72</ele><time>2015-11-23T12:04:53Z</time></trkpt><trkpt lat="30.5277657509" lon="35.5881128926"><ele>1327.72</ele><time>2015-11-23T12:05:21Z</time></trkpt><trkpt lat="30.5277681816" lon="35.5881147366"><ele>1328.20</ele><time>2015-11-23T12:05:49Z</time></trkpt><trkpt lat="30.5277650803" lon="35.5881099589"><ele>1328.20</ele><time>2015-11-23T12:06:19Z</time></trkpt><trkpt lat="30.5277622305" lon="35.5881156586"><ele>1328.20</ele><time>2015-11-23T12:06:49Z</time></trkpt><trkpt lat="30.5277531780" lon="35.5881202687"><ele>1328.20</ele><time>2015-11-23T12:07:25Z</time></trkpt><trkpt lat="30.5277587939" lon="35.5881144851"><ele>1329.64</ele><time>2015-11-23T12:08:06Z</time></trkpt><trkpt lat="30.5276872963" lon="35.5880517885"><ele>1330.12</ele><time>2015-11-23T12:08:27Z</time></trkpt><trkpt lat="30.5276413634" lon="35.5879292451"><ele>1329.64</ele><time>2015-11-23T12:08:34Z</time></trkpt><trkpt lat="30.5276317243" lon="35.5879105534"><ele>1330.12</ele><time>2015-11-23T12:08:35Z</time></trkpt><trkpt lat="30.5274870526" lon="35.5875768699"><ele>1329.64</ele><time>2015-11-23T12:08:49Z</time></trkpt><trkpt lat="30.5272770021" lon="35.5870725308"><ele>1327.72</ele><time>2015-11-23T12:09:04Z</time></trkpt><trkpt lat="30.5270180851" lon="35.5864848755"><ele>1327.24</ele><time>2015-11-23T12:09:20Z</time></trkpt><trkpt lat="30.5268879142" lon="35.5861845519"><ele>1327.72</ele><time>2015-11-23T12:09:31Z</time></trkpt><trkpt lat="30.5267069489" lon="35.5858218670"><ele>1326.76</ele><time>2015-11-23T12:09:45Z</time></trkpt><trkpt lat="30.5262440164" lon="35.5851611216"><ele>1324.35</ele><time>2015-11-23T12:09:58Z</time></trkpt><trkpt lat="30.5259277672" lon="35.5847724527"><ele>1326.76</ele><time>2015-11-23T12:10:09Z</time></trkpt><trkpt lat="30.5257683434" lon="35.5844966881"><ele>1327.24</ele><time>2015-11-23T12:10:24Z</time></trkpt><trkpt lat="30.5256249290" lon="35.5841586459"><ele>1325.80</ele><time>2015-11-23T12:10:35Z</time></trkpt><trkpt lat="30.5255049840" lon="35.5838993099"><ele>1325.31</ele><time>2015-11-23T12:10:41Z</time></trkpt><trkpt lat="30.5252823606" lon="35.5834302586"><ele>1326.76</ele><time>2015-11-23T12:10:54Z</time></trkpt><trkpt lat="30.5250600725" lon="35.5827174615"><ele>1325.80</ele><time>2015-11-23T12:11:12Z</time></trkpt><trkpt lat="30.5248817056" lon="35.5819350947"><ele>1323.87</ele><time>2015-11-23T12:11:25Z</time></trkpt><trkpt lat="30.5248083640" lon="35.5817343481"><ele>1323.39</ele><time>2015-11-23T12:11:28Z</time></trkpt><trkpt lat="30.5247773509" lon="35.5816677958"><ele>1323.39</ele><time>2015-11-23T12:11:29Z</time></trkpt><trkpt lat="30.5247406382" lon="35.5816058535"><ele>1323.39</ele><time>2015-11-23T12:11:30Z</time></trkpt><trkpt lat="30.5246986449" lon="35.5815467611"><ele>1323.39</ele><time>2015-11-23T12:11:31Z</time></trkpt><trkpt lat="30.5246520415" lon="35.5814942904"><ele>1323.39</ele><time>2015-11-23T12:11:32Z</time></trkpt><trkpt lat="30.5246004928" lon="35.5814505368"><ele>1323.39</ele><time>2015-11-23T12:11:33Z</time></trkpt><trkpt lat="30.5245463457" lon="35.5814132374"><ele>1323.87</ele><time>2015-11-23T12:11:34Z</time></trkpt><trkpt lat="30.5244903546" lon="35.5813818052"><ele>1323.87</ele><time>2015-11-23T12:11:35Z</time></trkpt><trkpt lat="30.5244354531" lon="35.5813528039"><ele>1323.87</ele><time>2015-11-23T12:11:36Z</time></trkpt><trkpt lat="30.5238320399" lon="35.5810201261"><ele>1323.39</ele><time>2015-11-23T12:11:50Z</time></trkpt><trkpt lat="30.5237347260" lon="35.5809395760"><ele>1323.39</ele><time>2015-11-23T12:11:53Z</time></trkpt><trkpt lat="30.5237064790" lon="35.5809055455"><ele>1323.39</ele><time>2015-11-23T12:11:54Z</time></trkpt><trkpt lat="30.5236795731" lon="35.5808675755"><ele>1323.39</ele><time>2015-11-23T12:11:55Z</time></trkpt><trkpt lat="30.5235270225" lon="35.5806045514"><ele>1322.91</ele><time>2015-11-23T12:12:01Z</time></trkpt><trkpt lat="30.5235038046" lon="35.5805586185"><ele>1322.91</ele><time>2015-11-23T12:12:02Z</time></trkpt><trkpt lat="30.5231908243" lon="35.5798096117"><ele>1320.99</ele><time>2015-11-23T12:12:17Z</time></trkpt><trkpt lat="30.5231778324" lon="35.5797454063"><ele>1320.99</ele><time>2015-11-23T12:12:18Z</time></trkpt><trkpt lat="30.5231703725" lon="35.5796781834"><ele>1320.51</ele><time>2015-11-23T12:12:19Z</time></trkpt><trkpt lat="30.5231360905" lon="35.5787094869"><ele>1320.03</ele><time>2015-11-23T12:12:35Z</time></trkpt><trkpt lat="30.5230809376" lon="35.5777504295"><ele>1317.62</ele><time>2015-11-23T12:12:47Z</time></trkpt><trkpt lat="30.5230493378" lon="35.5773677118"><ele>1317.14</ele><time>2015-11-23T12:12:53Z</time></trkpt><trkpt lat="30.5229977053" lon="35.5764206406"><ele>1316.18</ele><time>2015-11-23T12:13:09Z</time></trkpt><trkpt lat="30.5229695421" lon="35.5755918380"><ele>1317.62</ele><time>2015-11-23T12:13:25Z</time></trkpt><trkpt lat="30.5229292251" lon="35.5749566574"><ele>1319.55</ele><time>2015-11-23T12:13:41Z</time></trkpt><trkpt lat="30.5229187477" lon="35.5745161045"><ele>1320.99</ele><time>2015-11-23T12:13:54Z</time></trkpt><trkpt lat="30.5229203403" lon="35.5744834151"><ele>1320.99</ele><time>2015-11-23T12:13:55Z</time></trkpt><trkpt lat="30.5229202565" lon="35.5744516477"><ele>1320.99</ele><time>2015-11-23T12:13:56Z</time></trkpt><trkpt lat="30.5229195859" lon="35.5744202994"><ele>1320.99</ele><time>2015-11-23T12:13:57Z</time></trkpt><trkpt lat="30.5229205918" lon="35.5743897893"><ele>1320.99</ele><time>2015-11-23T12:13:58Z</time></trkpt><trkpt lat="30.5229317397" lon="35.5742773041"><ele>1321.95</ele><time>2015-11-23T12:14:02Z</time></trkpt><trkpt lat="30.5229355115" lon="35.5742509011"><ele>1321.95</ele><time>2015-11-23T12:14:03Z</time></trkpt><trkpt lat="30.5229371879" lon="35.5742234923"><ele>1321.95</ele><time>2015-11-23T12:14:04Z</time></trkpt><trkpt lat="30.5229350086" lon="35.5741944071"><ele>1321.95</ele><time>2015-11-23T12:14:05Z</time></trkpt><trkpt lat="30.5229322426" lon="35.5741635617"><ele>1321.95</ele><time>2015-11-23T12:14:06Z</time></trkpt><trkpt lat="30.5229315720" lon="35.5741322134"><ele>1321.95</ele><time>2015-11-23T12:14:07Z</time></trkpt><trkpt lat="30.5229193345" lon="35.5737420358"><ele>1323.39</ele><time>2015-11-23T12:14:21Z</time></trkpt><trkpt lat="30.5229656864" lon="35.5735442229"><ele>1325.31</ele><time>2015-11-23T12:14:31Z</time></trkpt><trkpt lat="30.5229756609" lon="35.5735275429"><ele>1325.31</ele><time>2015-11-23T12:14:32Z</time></trkpt><trkpt lat="30.5229840428" lon="35.5735075101"><ele>1325.31</ele><time>2015-11-23T12:14:33Z</time></trkpt><trkpt lat="30.5229848810" lon="35.5734827835"><ele>1325.31</ele><time>2015-11-23T12:14:34Z</time></trkpt><trkpt lat="30.5229828693" lon="35.5734528601"><ele>1325.80</ele><time>2015-11-23T12:14:35Z</time></trkpt><trkpt lat="30.5229815282" lon="35.5734205060"><ele>1325.80</ele><time>2015-11-23T12:14:36Z</time></trkpt><trkpt lat="30.5229146406" lon="35.5730156600"><ele>1327.72</ele><time>2015-11-23T12:14:51Z</time></trkpt><trkpt lat="30.5227787700" lon="35.5727223773"><ele>1328.68</ele><time>2015-11-23T12:15:05Z</time></trkpt><trkpt lat="30.5226225313" lon="35.5723053776"><ele>1331.08</ele><time>2015-11-23T12:15:21Z</time></trkpt><trkpt lat="30.5226649437" lon="35.5720203090"><ele>1332.04</ele><time>2015-11-23T12:15:32Z</time></trkpt><trkpt lat="30.5228744075" lon="35.5716619827"><ele>1333.49</ele><time>2015-11-23T12:15:48Z</time></trkpt><trkpt lat="30.5230336636" lon="35.5713701248"><ele>1334.45</ele><time>2015-11-23T12:16:02Z</time></trkpt><trkpt lat="30.5232026428" lon="35.5711179134"><ele>1335.89</ele><time>2015-11-23T12:16:16Z</time></trkpt><trkpt lat="30.5234193150" lon="35.5708229542"><ele>1337.81</ele><time>2015-11-23T12:16:33Z</time></trkpt><trkpt lat="30.5236100871" lon="35.5705732573"><ele>1339.25</ele><time>2015-11-23T12:16:48Z</time></trkpt><trkpt lat="30.5238223169" lon="35.5702898651"><ele>1341.18</ele><time>2015-11-23T12:17:05Z</time></trkpt><trkpt lat="30.5239996780" lon="35.5700723547"><ele>1343.10</ele><time>2015-11-23T12:17:18Z</time></trkpt><trkpt lat="30.5242425855" lon="35.5697568599"><ele>1345.50</ele><time>2015-11-23T12:17:36Z</time></trkpt><trkpt lat="30.5244603474" lon="35.5694694445"><ele>1347.91</ele><time>2015-11-23T12:17:52Z</time></trkpt><trkpt lat="30.5247316696" lon="35.5691552907"><ele>1350.31</ele><time>2015-11-23T12:18:09Z</time></trkpt><trkpt lat="30.5250042491" lon="35.5688057654"><ele>1352.71</ele><time>2015-11-23T12:18:25Z</time></trkpt><trkpt lat="30.5250888225" lon="35.5685547274"><ele>1352.23</ele><time>2015-11-23T12:18:38Z</time></trkpt><trkpt lat="30.5251536984" lon="35.5680828262"><ele>1350.31</ele><time>2015-11-23T12:18:50Z</time></trkpt><trkpt lat="30.5252369307" lon="35.5676112603"><ele>1346.94</ele><time>2015-11-23T12:18:57Z</time></trkpt><trkpt lat="30.5253384355" lon="35.5671697855"><ele>1342.62</ele><time>2015-11-23T12:19:01Z</time></trkpt><trkpt lat="30.5254614819" lon="35.5667723995"><ele>1338.29</ele><time>2015-11-23T12:19:04Z</time></trkpt><trkpt lat="30.5255243462" lon="35.5666400492"><ele>1337.33</ele><time>2015-11-23T12:19:05Z</time></trkpt><trkpt lat="30.5256032199" lon="35.5665173382"><ele>1335.89</ele><time>2015-11-23T12:19:06Z</time></trkpt><trkpt lat="30.5256918166" lon="35.5664093792"><ele>1334.93</ele><time>2015-11-23T12:19:07Z</time></trkpt><trkpt lat="30.5257810000" lon="35.5663165916"><ele>1334.45</ele><time>2015-11-23T12:19:08Z</time></trkpt><trkpt lat="30.5259406753" lon="35.5661637895"><ele>1333.01</ele><time>2015-11-23T12:19:10Z</time></trkpt><trkpt lat="30.5262222234" lon="35.5658819061"><ele>1332.52</ele><time>2015-11-23T12:19:17Z</time></trkpt><trkpt lat="30.5265006702" lon="35.5655635614"><ele>1332.04</ele><time>2015-11-23T12:19:30Z</time></trkpt><trkpt lat="30.5266954657" lon="35.5653149541"><ele>1329.16</ele><time>2015-11-23T12:19:42Z</time></trkpt><trkpt lat="30.5267682206" lon="35.5650007166"><ele>1327.72</ele><time>2015-11-23T12:19:54Z</time></trkpt><trkpt lat="30.5267683044" lon="35.5649943464"><ele>1328.20</ele><time>2015-11-23T12:20:07Z</time></trkpt><trkpt lat="30.5267726630" lon="35.5649963580"><ele>1328.20</ele><time>2015-11-23T12:20:35Z</time></trkpt><trkpt lat="30.5267191865" lon="35.5650137085"><ele>1328.68</ele><time>2015-11-23T12:20:44Z</time></trkpt><trkpt lat="30.5267134029" lon="35.5650742259"><ele>1328.68</ele><time>2015-11-23T12:20:58Z</time></trkpt><trkpt lat="30.5266794562" lon="35.5653220788"><ele>1329.64</ele><time>2015-11-23T12:21:10Z</time></trkpt><trkpt lat="30.5265220441" lon="35.5655015353"><ele>1331.08</ele><time>2015-11-23T12:21:23Z</time></trkpt><trkpt lat="30.5264298432" lon="35.5655998550"><ele>1332.04</ele><time>2015-11-23T12:21:32Z</time></trkpt><trkpt lat="30.5263929628" lon="35.5656159483"><ele>1332.52</ele><time>2015-11-23T12:21:35Z</time></trkpt><trkpt lat="30.5263379775" lon="35.5655404273"><ele>1333.01</ele><time>2015-11-23T12:21:43Z</time></trkpt><trkpt lat="30.5262723472" lon="35.5652877130"><ele>1333.49</ele><time>2015-11-23T12:21:57Z</time></trkpt><trkpt lat="30.5262465309" lon="35.5651921593"><ele>1333.97</ele><time>2015-11-23T12:22:03Z</time></trkpt></trkseg></trk></gpx>